<?xml version="1.0" encoding="UTF-8" standalone="no" ?>
<gpx xmlns="http://www.topografix.com/GPX/1/1" xmlns:xsi="http://www.w3.org/2001/XMLSchema-instance" xsi:schemaLocation="http://www.topografix.com/GPX/1/1 http://www.topografix.com/GPX/1/1/gpx.xsd" version="1.1" creator="VisuGPX - https://www.visugpx.com">
  <metadata>
    <name>Coutemaux-Chantecoq-Coutemaux (Loiret -45)</name>
    <desc><![CDATA[Très belle boucle sans difficulté majeure]]></desc>
  </metadata>
  <wpt lat="48.39766" lon="2.79195">
    <ele>46.4</ele>
    <name><![CDATA[012]]></name>
    <desc><![CDATA[30-AVR-12 21:14:24]]></desc>
    <cmt><![CDATA[30-AVR-12 21:14:24]]></cmt>
  </wpt>
  <wpt lat="47.92934" lon="2.13875">
    <ele>101.54418945312</ele>
    <name><![CDATA[013]]></name>
    <desc><![CDATA[01-MAI-12 11:23:15]]></desc>
    <cmt><![CDATA[01-MAI-12 11:23:15]]></cmt>
  </wpt>
  <wpt lat="47.92934" lon="2.13875">
    <ele>101.54418945312</ele>
    <name><![CDATA[014]]></name>
    <desc><![CDATA[01-MAI-12 11:23:23]]></desc>
    <cmt><![CDATA[01-MAI-12 11:23:23]]></cmt>
  </wpt>
  <wpt lat="47.92931" lon="2.13876">
    <ele>91.931030273438</ele>
    <name><![CDATA[015]]></name>
    <desc><![CDATA[01-MAI-12 18:12:22]]></desc>
    <cmt><![CDATA[01-MAI-12 18:12:22]]></cmt>
  </wpt>
  <wpt lat="48.31195" lon="3.15351">
    <ele>68.37890625</ele>
    <name><![CDATA[019]]></name>
    <desc><![CDATA[12-MAI-12 7:32:00]]></desc>
    <cmt><![CDATA[12-MAI-12 7:32:00]]></cmt>
  </wpt>
  <wpt lat="48.31192" lon="3.15364">
    <ele>60.9</ele>
    <name><![CDATA[020]]></name>
    <desc><![CDATA[24-MAI-12 13:53:13]]></desc>
    <cmt><![CDATA[24-MAI-12 13:53:13]]></cmt>
  </wpt>
  <wpt lat="48.05082" lon="2.93602">
    <ele>121.73168945312</ele>
    <name><![CDATA[021]]></name>
    <desc><![CDATA[05-JUN-12 10:14:36]]></desc>
    <cmt><![CDATA[05-JUN-12 10:14:36]]></cmt>
  </wpt>
  <wpt lat="48.06662" lon="2.94333">
    <ele>140.71765136719</ele>
    <name><![CDATA[022]]></name>
    <desc><![CDATA[05-JUN-12 10:45:48]]></desc>
    <cmt><![CDATA[05-JUN-12 10:45:48]]></cmt>
  </wpt>
  <wpt lat="48.06586" lon="2.93958">
    <ele>124.13500976562</ele>
    <name><![CDATA[023]]></name>
    <desc><![CDATA[05-JUN-12 10:49:10]]></desc>
    <cmt><![CDATA[05-JUN-12 10:49:10]]></cmt>
  </wpt>
  <wpt lat="48.05076" lon="2.93604">
    <ele>115.24291992188</ele>
    <name><![CDATA[024]]></name>
    <desc><![CDATA[05-JUN-12 12:56:36]]></desc>
    <cmt><![CDATA[05-JUN-12 12:56:36]]></cmt>
  </wpt>
  <trk>
    <name><![CDATA[ACTIVE LOG]]></name>
    <trkseg>
      <trkpt lat="48.05112" lon="2.93673">
        <ele>39.070678710938</ele>
        <time>2012-06-05T08:13:05Z</time>
      </trkpt>
      <trkpt lat="48.05081" lon="2.93607">
        <ele>115.01489257812</ele>
        <time>2012-06-05T08:13:26Z</time>
      </trkpt>
      <trkpt lat="48.05084" lon="2.93603">
        <ele>119.3408203125</ele>
        <time>2012-06-05T08:14:52Z</time>
      </trkpt>
      <trkpt lat="48.05086" lon="2.93601">
        <ele>119.3408203125</ele>
        <time>2012-06-05T08:14:55Z</time>
      </trkpt>
      <trkpt lat="48.0508" lon="2.93604">
        <ele>119.82141113281</ele>
        <time>2012-06-05T08:15:01Z</time>
      </trkpt>
      <trkpt lat="48.05074" lon="2.93609">
        <ele>123.18615722656</ele>
        <time>2012-06-05T08:15:13Z</time>
      </trkpt>
      <trkpt lat="48.05079" lon="2.93601">
        <ele>124.14733886719</ele>
        <time>2012-06-05T08:15:42Z</time>
      </trkpt>
      <trkpt lat="48.05082" lon="2.936">
        <ele>124.14733886719</ele>
        <time>2012-06-05T08:15:45Z</time>
      </trkpt>
      <trkpt lat="48.05084" lon="2.93597">
        <ele>123.66674804688</ele>
        <time>2012-06-05T08:15:48Z</time>
      </trkpt>
      <trkpt lat="48.05108" lon="2.93592">
        <ele>118.37939453125</ele>
        <time>2012-06-05T08:16:06Z</time>
      </trkpt>
      <trkpt lat="48.05114" lon="2.93591">
        <ele>117.89880371094</ele>
        <time>2012-06-05T08:16:10Z</time>
      </trkpt>
      <trkpt lat="48.05132" lon="2.93601">
        <ele>111.65026855469</ele>
        <time>2012-06-05T08:16:26Z</time>
      </trkpt>
      <trkpt lat="48.05154" lon="2.93612">
        <ele>110.20825195312</ele>
        <time>2012-06-05T08:16:40Z</time>
      </trkpt>
      <trkpt lat="48.05174" lon="2.93628">
        <ele>107.80505371094</ele>
        <time>2012-06-05T08:16:56Z</time>
      </trkpt>
      <trkpt lat="48.05181" lon="2.93632">
        <ele>108.28564453125</ele>
        <time>2012-06-05T08:17:01Z</time>
      </trkpt>
      <trkpt lat="48.05196" lon="2.93642">
        <ele>107.80505371094</ele>
        <time>2012-06-05T08:17:11Z</time>
      </trkpt>
      <trkpt lat="48.05198" lon="2.93644">
        <ele>107.32434082031</ele>
        <time>2012-06-05T08:17:13Z</time>
      </trkpt>
      <trkpt lat="48.05202" lon="2.93647">
        <ele>108.28564453125</ele>
        <time>2012-06-05T08:17:16Z</time>
      </trkpt>
      <trkpt lat="48.05219" lon="2.93651">
        <ele>107.80505371094</ele>
        <time>2012-06-05T08:17:26Z</time>
      </trkpt>
      <trkpt lat="48.05243" lon="2.93648">
        <ele>107.80505371094</ele>
        <time>2012-06-05T08:17:41Z</time>
      </trkpt>
      <trkpt lat="48.05266" lon="2.93644">
        <ele>110.20825195312</ele>
        <time>2012-06-05T08:17:57Z</time>
      </trkpt>
      <trkpt lat="48.05284" lon="2.93642">
        <ele>110.68884277344</ele>
        <time>2012-06-05T08:18:10Z</time>
      </trkpt>
      <trkpt lat="48.05304" lon="2.93641">
        <ele>110.68884277344</ele>
        <time>2012-06-05T08:18:24Z</time>
      </trkpt>
      <trkpt lat="48.05324" lon="2.93644">
        <ele>113.09228515625</ele>
        <time>2012-06-05T08:18:37Z</time>
      </trkpt>
      <trkpt lat="48.05348" lon="2.93645">
        <ele>115.01489257812</ele>
        <time>2012-06-05T08:18:53Z</time>
      </trkpt>
      <trkpt lat="48.05363" lon="2.93644">
        <ele>114.05358886719</ele>
        <time>2012-06-05T08:19:06Z</time>
      </trkpt>
      <trkpt lat="48.05379" lon="2.93642">
        <ele>113.57299804688</ele>
        <time>2012-06-05T08:19:17Z</time>
      </trkpt>
      <trkpt lat="48.05398" lon="2.93641">
        <ele>113.57299804688</ele>
        <time>2012-06-05T08:19:30Z</time>
      </trkpt>
      <trkpt lat="48.05419" lon="2.93647">
        <ele>113.57299804688</ele>
        <time>2012-06-05T08:19:43Z</time>
      </trkpt>
      <trkpt lat="48.05424" lon="2.9365">
        <ele>113.57299804688</ele>
        <time>2012-06-05T08:19:47Z</time>
      </trkpt>
      <trkpt lat="48.0544" lon="2.93662">
        <ele>115.01489257812</ele>
        <time>2012-06-05T08:19:59Z</time>
      </trkpt>
      <trkpt lat="48.05451" lon="2.93669">
        <ele>115.49560546875</ele>
        <time>2012-06-05T08:20:08Z</time>
      </trkpt>
      <trkpt lat="48.05457" lon="2.9367">
        <ele>116.45678710938</ele>
        <time>2012-06-05T08:20:13Z</time>
      </trkpt>
      <trkpt lat="48.05474" lon="2.93678">
        <ele>117.41821289062</ele>
        <time>2012-06-05T08:20:26Z</time>
      </trkpt>
      <trkpt lat="48.05477" lon="2.9368">
        <ele>117.41821289062</ele>
        <time>2012-06-05T08:20:29Z</time>
      </trkpt>
      <trkpt lat="48.0549" lon="2.93692">
        <ele>119.3408203125</ele>
        <time>2012-06-05T08:20:40Z</time>
      </trkpt>
      <trkpt lat="48.05499" lon="2.93695">
        <ele>120.78283691406</ele>
        <time>2012-06-05T08:20:54Z</time>
      </trkpt>
      <trkpt lat="48.05499" lon="2.93695">
        <ele>120.78283691406</ele>
        <time>2012-06-05T08:21:00Z</time>
      </trkpt>
      <trkpt lat="48.05525" lon="2.9371">
        <ele>117.89880371094</ele>
        <time>2012-06-05T08:21:26Z</time>
      </trkpt>
      <trkpt lat="48.05527" lon="2.93713">
        <ele>115.97619628906</ele>
        <time>2012-06-05T08:21:29Z</time>
      </trkpt>
      <trkpt lat="48.05549" lon="2.93718">
        <ele>115.01489257812</ele>
        <time>2012-06-05T08:21:40Z</time>
      </trkpt>
      <trkpt lat="48.05558" lon="2.93724">
        <ele>115.97619628906</ele>
        <time>2012-06-05T08:21:47Z</time>
      </trkpt>
      <trkpt lat="48.05576" lon="2.93728">
        <ele>116.9375</ele>
        <time>2012-06-05T08:21:58Z</time>
      </trkpt>
      <trkpt lat="48.05597" lon="2.9374">
        <ele>118.86010742188</ele>
        <time>2012-06-05T08:22:13Z</time>
      </trkpt>
      <trkpt lat="48.05646" lon="2.9377">
        <ele>128.9541015625</ele>
        <time>2012-06-05T08:23:01Z</time>
      </trkpt>
      <trkpt lat="48.05649" lon="2.93771">
        <ele>128.9541015625</ele>
        <time>2012-06-05T08:23:03Z</time>
      </trkpt>
      <trkpt lat="48.05676" lon="2.93784">
        <ele>129.91528320312</ele>
        <time>2012-06-05T08:23:22Z</time>
      </trkpt>
      <trkpt lat="48.05705" lon="2.93793">
        <ele>136.16394042969</ele>
        <time>2012-06-05T08:23:46Z</time>
      </trkpt>
      <trkpt lat="48.05706" lon="2.93794">
        <ele>136.64465332031</ele>
        <time>2012-06-05T08:23:48Z</time>
      </trkpt>
      <trkpt lat="48.05712" lon="2.93803">
        <ele>136.64465332031</ele>
        <time>2012-06-05T08:23:59Z</time>
      </trkpt>
      <trkpt lat="48.05713" lon="2.93803">
        <ele>136.64465332031</ele>
        <time>2012-06-05T08:24:00Z</time>
      </trkpt>
      <trkpt lat="48.05722" lon="2.93805">
        <ele>136.64465332031</ele>
        <time>2012-06-05T08:24:07Z</time>
      </trkpt>
      <trkpt lat="48.05732" lon="2.93811">
        <ele>135.68310546875</ele>
        <time>2012-06-05T08:24:15Z</time>
      </trkpt>
      <trkpt lat="48.05753" lon="2.93811">
        <ele>134.72192382812</ele>
        <time>2012-06-05T08:24:30Z</time>
      </trkpt>
      <trkpt lat="48.05773" lon="2.93808">
        <ele>134.72192382812</ele>
        <time>2012-06-05T08:24:44Z</time>
      </trkpt>
      <trkpt lat="48.05792" lon="2.93811">
        <ele>135.20251464844</ele>
        <time>2012-06-05T08:24:59Z</time>
      </trkpt>
      <trkpt lat="48.05809" lon="2.93809">
        <ele>136.16394042969</ele>
        <time>2012-06-05T08:25:11Z</time>
      </trkpt>
      <trkpt lat="48.05823" lon="2.93812">
        <ele>136.64465332031</ele>
        <time>2012-06-05T08:25:22Z</time>
      </trkpt>
      <trkpt lat="48.05835" lon="2.93814">
        <ele>137.60583496094</ele>
        <time>2012-06-05T08:25:31Z</time>
      </trkpt>
      <trkpt lat="48.05854" lon="2.93812">
        <ele>139.0478515625</ele>
        <time>2012-06-05T08:25:44Z</time>
      </trkpt>
      <trkpt lat="48.05872" lon="2.93812">
        <ele>140.97045898438</ele>
        <time>2012-06-05T08:25:58Z</time>
      </trkpt>
      <trkpt lat="48.05893" lon="2.93804">
        <ele>141.93176269531</ele>
        <time>2012-06-05T08:26:12Z</time>
      </trkpt>
      <trkpt lat="48.05911" lon="2.93796">
        <ele>141.45104980469</ele>
        <time>2012-06-05T08:26:25Z</time>
      </trkpt>
      <trkpt lat="48.05928" lon="2.9379">
        <ele>142.41247558594</ele>
        <time>2012-06-05T08:26:38Z</time>
      </trkpt>
      <trkpt lat="48.05944" lon="2.93783">
        <ele>143.37365722656</ele>
        <time>2012-06-05T08:26:51Z</time>
      </trkpt>
      <trkpt lat="48.05953" lon="2.93777">
        <ele>143.85437011719</ele>
        <time>2012-06-05T08:26:58Z</time>
      </trkpt>
      <trkpt lat="48.0596" lon="2.93776">
        <ele>145.29638671875</ele>
        <time>2012-06-05T08:27:08Z</time>
      </trkpt>
      <trkpt lat="48.05981" lon="2.93766">
        <ele>144.81579589844</ele>
        <time>2012-06-05T08:27:27Z</time>
      </trkpt>
      <trkpt lat="48.06005" lon="2.93759">
        <ele>146.73840332031</ele>
        <time>2012-06-05T08:27:43Z</time>
      </trkpt>
      <trkpt lat="48.06024" lon="2.9375">
        <ele>145.29638671875</ele>
        <time>2012-06-05T08:27:57Z</time>
      </trkpt>
      <trkpt lat="48.06045" lon="2.93742">
        <ele>146.2578125</ele>
        <time>2012-06-05T08:28:12Z</time>
      </trkpt>
      <trkpt lat="48.06067" lon="2.93741">
        <ele>146.2578125</ele>
        <time>2012-06-05T08:28:28Z</time>
      </trkpt>
      <trkpt lat="48.06082" lon="2.93738">
        <ele>144.33520507812</ele>
        <time>2012-06-05T08:28:39Z</time>
      </trkpt>
      <trkpt lat="48.06102" lon="2.93733">
        <ele>143.85437011719</ele>
        <time>2012-06-05T08:28:52Z</time>
      </trkpt>
      <trkpt lat="48.0612" lon="2.93733">
        <ele>144.33520507812</ele>
        <time>2012-06-05T08:29:06Z</time>
      </trkpt>
      <trkpt lat="48.06138" lon="2.93728">
        <ele>144.33520507812</ele>
        <time>2012-06-05T08:29:18Z</time>
      </trkpt>
      <trkpt lat="48.06155" lon="2.93727">
        <ele>143.37365722656</ele>
        <time>2012-06-05T08:29:30Z</time>
      </trkpt>
      <trkpt lat="48.06175" lon="2.93725">
        <ele>141.93176269531</ele>
        <time>2012-06-05T08:29:44Z</time>
      </trkpt>
      <trkpt lat="48.06195" lon="2.93718">
        <ele>142.41247558594</ele>
        <time>2012-06-05T08:29:57Z</time>
      </trkpt>
      <trkpt lat="48.06206" lon="2.93718">
        <ele>141.45104980469</ele>
        <time>2012-06-05T08:30:06Z</time>
      </trkpt>
      <trkpt lat="48.06221" lon="2.93719">
        <ele>142.41247558594</ele>
        <time>2012-06-05T08:30:18Z</time>
      </trkpt>
      <trkpt lat="48.06231" lon="2.93717">
        <ele>141.93176269531</ele>
        <time>2012-06-05T08:30:26Z</time>
      </trkpt>
      <trkpt lat="48.06245" lon="2.93724">
        <ele>142.41247558594</ele>
        <time>2012-06-05T08:30:37Z</time>
      </trkpt>
      <trkpt lat="48.06266" lon="2.93757">
        <ele>144.81579589844</ele>
        <time>2012-06-05T08:31:01Z</time>
      </trkpt>
      <trkpt lat="48.0627" lon="2.93761">
        <ele>144.81579589844</ele>
        <time>2012-06-05T08:31:06Z</time>
      </trkpt>
      <trkpt lat="48.06273" lon="2.93767">
        <ele>144.81579589844</ele>
        <time>2012-06-05T08:31:10Z</time>
      </trkpt>
      <trkpt lat="48.06278" lon="2.93777">
        <ele>145.29638671875</ele>
        <time>2012-06-05T08:31:16Z</time>
      </trkpt>
      <trkpt lat="48.06288" lon="2.93786">
        <ele>146.2578125</ele>
        <time>2012-06-05T08:31:24Z</time>
      </trkpt>
      <trkpt lat="48.06294" lon="2.93792">
        <ele>147.69970703125</ele>
        <time>2012-06-05T08:31:29Z</time>
      </trkpt>
      <trkpt lat="48.06298" lon="2.93797">
        <ele>148.66101074219</ele>
        <time>2012-06-05T08:31:33Z</time>
      </trkpt>
      <trkpt lat="48.06303" lon="2.93801">
        <ele>150.10302734375</ele>
        <time>2012-06-05T08:31:37Z</time>
      </trkpt>
      <trkpt lat="48.06317" lon="2.93818">
        <ele>152.50634765625</ele>
        <time>2012-06-05T08:31:51Z</time>
      </trkpt>
      <trkpt lat="48.06336" lon="2.93825">
        <ele>142.89306640625</ele>
        <time>2012-06-05T08:32:04Z</time>
      </trkpt>
      <trkpt lat="48.06342" lon="2.9383">
        <ele>141.45104980469</ele>
        <time>2012-06-05T08:32:28Z</time>
      </trkpt>
      <trkpt lat="48.06381" lon="2.93844">
        <ele>137.60583496094</ele>
        <time>2012-06-05T08:32:53Z</time>
      </trkpt>
      <trkpt lat="48.06404" lon="2.93851">
        <ele>137.12524414062</ele>
        <time>2012-06-05T08:33:07Z</time>
      </trkpt>
      <trkpt lat="48.0642" lon="2.93855">
        <ele>135.20251464844</ele>
        <time>2012-06-05T08:33:18Z</time>
      </trkpt>
      <trkpt lat="48.06439" lon="2.93861">
        <ele>135.20251464844</ele>
        <time>2012-06-05T08:33:31Z</time>
      </trkpt>
      <trkpt lat="48.06459" lon="2.93865">
        <ele>134.2412109375</ele>
        <time>2012-06-05T08:33:44Z</time>
      </trkpt>
      <trkpt lat="48.06469" lon="2.9387">
        <ele>133.76049804688</ele>
        <time>2012-06-05T08:33:52Z</time>
      </trkpt>
      <trkpt lat="48.06474" lon="2.93872">
        <ele>133.76049804688</ele>
        <time>2012-06-05T08:33:56Z</time>
      </trkpt>
      <trkpt lat="48.06491" lon="2.93876">
        <ele>133.27990722656</ele>
        <time>2012-06-05T08:34:08Z</time>
      </trkpt>
      <trkpt lat="48.06506" lon="2.93884">
        <ele>132.79931640625</ele>
        <time>2012-06-05T08:34:20Z</time>
      </trkpt>
      <trkpt lat="48.06512" lon="2.93885">
        <ele>132.79931640625</ele>
        <time>2012-06-05T08:34:24Z</time>
      </trkpt>
      <trkpt lat="48.06529" lon="2.93892">
        <ele>131.837890625</ele>
        <time>2012-06-05T08:34:37Z</time>
      </trkpt>
      <trkpt lat="48.06542" lon="2.93897">
        <ele>128.9541015625</ele>
        <time>2012-06-05T08:34:47Z</time>
      </trkpt>
      <trkpt lat="48.06555" lon="2.93903">
        <ele>127.99255371094</ele>
        <time>2012-06-05T08:35:01Z</time>
      </trkpt>
      <trkpt lat="48.06556" lon="2.93904">
        <ele>127.99255371094</ele>
        <time>2012-06-05T08:35:04Z</time>
      </trkpt>
      <trkpt lat="48.06561" lon="2.93905">
        <ele>128.47338867188</ele>
        <time>2012-06-05T08:35:08Z</time>
      </trkpt>
      <trkpt lat="48.06574" lon="2.93907">
        <ele>127.03137207031</ele>
        <time>2012-06-05T08:35:20Z</time>
      </trkpt>
      <trkpt lat="48.06586" lon="2.9391">
        <ele>126.55065917969</ele>
        <time>2012-06-05T08:35:30Z</time>
      </trkpt>
      <trkpt lat="48.0659" lon="2.93911">
        <ele>126.55065917969</ele>
        <time>2012-06-05T08:35:33Z</time>
      </trkpt>
      <trkpt lat="48.06593" lon="2.93919">
        <ele>127.51196289062</ele>
        <time>2012-06-05T08:35:41Z</time>
      </trkpt>
      <trkpt lat="48.0659" lon="2.93931">
        <ele>127.99255371094</ele>
        <time>2012-06-05T08:35:55Z</time>
      </trkpt>
      <trkpt lat="48.06589" lon="2.93937">
        <ele>127.51196289062</ele>
        <time>2012-06-05T08:36:06Z</time>
      </trkpt>
      <trkpt lat="48.06589" lon="2.93937">
        <ele>127.51196289062</ele>
        <time>2012-06-05T08:36:24Z</time>
      </trkpt>
      <trkpt lat="48.06592" lon="2.93951">
        <ele>127.51196289062</ele>
        <time>2012-06-05T08:36:30Z</time>
      </trkpt>
      <trkpt lat="48.06596" lon="2.93976">
        <ele>127.51196289062</ele>
        <time>2012-06-05T08:36:45Z</time>
      </trkpt>
      <trkpt lat="48.06598" lon="2.93984">
        <ele>127.03137207031</ele>
        <time>2012-06-05T08:36:48Z</time>
      </trkpt>
      <trkpt lat="48.06601" lon="2.93996">
        <ele>127.03137207031</ele>
        <time>2012-06-05T08:36:54Z</time>
      </trkpt>
      <trkpt lat="48.06602" lon="2.94004">
        <ele>127.03137207031</ele>
        <time>2012-06-05T08:36:58Z</time>
      </trkpt>
      <trkpt lat="48.06604" lon="2.94015">
        <ele>127.51196289062</ele>
        <time>2012-06-05T08:37:03Z</time>
      </trkpt>
      <trkpt lat="48.06605" lon="2.94019">
        <ele>127.51196289062</ele>
        <time>2012-06-05T08:37:05Z</time>
      </trkpt>
      <trkpt lat="48.06608" lon="2.94046">
        <ele>127.51196289062</ele>
        <time>2012-06-05T08:37:17Z</time>
      </trkpt>
      <trkpt lat="48.0661" lon="2.9405">
        <ele>127.51196289062</ele>
        <time>2012-06-05T08:37:20Z</time>
      </trkpt>
      <trkpt lat="48.06614" lon="2.94072">
        <ele>127.99255371094</ele>
        <time>2012-06-05T08:37:31Z</time>
      </trkpt>
      <trkpt lat="48.06617" lon="2.94086">
        <ele>128.9541015625</ele>
        <time>2012-06-05T08:37:38Z</time>
      </trkpt>
      <trkpt lat="48.06618" lon="2.94091">
        <ele>129.43469238281</ele>
        <time>2012-06-05T08:37:41Z</time>
      </trkpt>
      <trkpt lat="48.06626" lon="2.9411">
        <ele>130.39599609375</ele>
        <time>2012-06-05T08:37:53Z</time>
      </trkpt>
      <trkpt lat="48.06643" lon="2.94138">
        <ele>128.47338867188</ele>
        <time>2012-06-05T08:38:12Z</time>
      </trkpt>
      <trkpt lat="48.06647" lon="2.94165">
        <ele>130.87670898438</ele>
        <time>2012-06-05T08:38:25Z</time>
      </trkpt>
      <trkpt lat="48.06651" lon="2.94177">
        <ele>131.35729980469</ele>
        <time>2012-06-05T08:38:32Z</time>
      </trkpt>
      <trkpt lat="48.06659" lon="2.94194">
        <ele>130.87670898438</ele>
        <time>2012-06-05T08:38:43Z</time>
      </trkpt>
      <trkpt lat="48.06662" lon="2.94222">
        <ele>132.79931640625</ele>
        <time>2012-06-05T08:38:55Z</time>
      </trkpt>
      <trkpt lat="48.06659" lon="2.9424">
        <ele>133.27990722656</ele>
        <time>2012-06-05T08:39:04Z</time>
      </trkpt>
      <trkpt lat="48.06661" lon="2.94249">
        <ele>133.27990722656</ele>
        <time>2012-06-05T08:39:09Z</time>
      </trkpt>
      <trkpt lat="48.06661" lon="2.94262">
        <ele>133.76049804688</ele>
        <time>2012-06-05T08:39:15Z</time>
      </trkpt>
      <trkpt lat="48.0666" lon="2.94287">
        <ele>135.20251464844</ele>
        <time>2012-06-05T08:39:28Z</time>
      </trkpt>
      <trkpt lat="48.0666" lon="2.94292">
        <ele>135.68310546875</ele>
        <time>2012-06-05T08:39:37Z</time>
      </trkpt>
      <trkpt lat="48.06661" lon="2.94298">
        <ele>136.16394042969</ele>
        <time>2012-06-05T08:39:40Z</time>
      </trkpt>
      <trkpt lat="48.0666" lon="2.94355">
        <ele>133.76049804688</ele>
        <time>2012-06-05T08:40:08Z</time>
      </trkpt>
      <trkpt lat="48.06661" lon="2.94366">
        <ele>133.76049804688</ele>
        <time>2012-06-05T08:40:23Z</time>
      </trkpt>
      <trkpt lat="48.06662" lon="2.94368">
        <ele>133.76049804688</ele>
        <time>2012-06-05T08:40:24Z</time>
      </trkpt>
      <trkpt lat="48.06661" lon="2.94383">
        <ele>133.76049804688</ele>
        <time>2012-06-05T08:40:31Z</time>
      </trkpt>
      <trkpt lat="48.06661" lon="2.94389">
        <ele>133.76049804688</ele>
        <time>2012-06-05T08:40:34Z</time>
      </trkpt>
      <trkpt lat="48.06664" lon="2.94415">
        <ele>134.2412109375</ele>
        <time>2012-06-05T08:40:46Z</time>
      </trkpt>
      <trkpt lat="48.06662" lon="2.94443">
        <ele>136.16394042969</ele>
        <time>2012-06-05T08:40:59Z</time>
      </trkpt>
      <trkpt lat="48.06663" lon="2.94457">
        <ele>137.12524414062</ele>
        <time>2012-06-05T08:41:05Z</time>
      </trkpt>
      <trkpt lat="48.06664" lon="2.94461">
        <ele>137.12524414062</ele>
        <time>2012-06-05T08:41:07Z</time>
      </trkpt>
      <trkpt lat="48.06664" lon="2.94464">
        <ele>137.12524414062</ele>
        <time>2012-06-05T08:41:09Z</time>
      </trkpt>
      <trkpt lat="48.0666" lon="2.94475">
        <ele>137.60583496094</ele>
        <time>2012-06-05T08:41:13Z</time>
      </trkpt>
      <trkpt lat="48.0666" lon="2.94484">
        <ele>138.08654785156</ele>
        <time>2012-06-05T08:41:17Z</time>
      </trkpt>
      <trkpt lat="48.06662" lon="2.94498">
        <ele>140.00915527344</ele>
        <time>2012-06-05T08:41:26Z</time>
      </trkpt>
      <trkpt lat="48.0666" lon="2.9451">
        <ele>140.48986816406</ele>
        <time>2012-06-05T08:41:35Z</time>
      </trkpt>
      <trkpt lat="48.06657" lon="2.94525">
        <ele>140.00915527344</ele>
        <time>2012-06-05T08:41:57Z</time>
      </trkpt>
      <trkpt lat="48.06657" lon="2.94528">
        <ele>139.52844238281</ele>
        <time>2012-06-05T08:42:14Z</time>
      </trkpt>
      <trkpt lat="48.06657" lon="2.94535">
        <ele>139.0478515625</ele>
        <time>2012-06-05T08:42:54Z</time>
      </trkpt>
      <trkpt lat="48.06657" lon="2.94541">
        <ele>137.12524414062</ele>
        <time>2012-06-05T08:43:49Z</time>
      </trkpt>
      <trkpt lat="48.06659" lon="2.94529">
        <ele>137.12524414062</ele>
        <time>2012-06-05T08:43:59Z</time>
      </trkpt>
      <trkpt lat="48.0666" lon="2.94517">
        <ele>137.60583496094</ele>
        <time>2012-06-05T08:44:05Z</time>
      </trkpt>
      <trkpt lat="48.0666" lon="2.94511">
        <ele>137.12524414062</ele>
        <time>2012-06-05T08:44:08Z</time>
      </trkpt>
      <trkpt lat="48.06661" lon="2.94501">
        <ele>135.20251464844</ele>
        <time>2012-06-05T08:44:14Z</time>
      </trkpt>
      <trkpt lat="48.06661" lon="2.9447">
        <ele>137.60583496094</ele>
        <time>2012-06-05T08:44:28Z</time>
      </trkpt>
      <trkpt lat="48.06659" lon="2.94413">
        <ele>142.89306640625</ele>
        <time>2012-06-05T08:44:55Z</time>
      </trkpt>
      <trkpt lat="48.0666" lon="2.94391">
        <ele>142.41247558594</ele>
        <time>2012-06-05T08:45:06Z</time>
      </trkpt>
      <trkpt lat="48.06659" lon="2.94378">
        <ele>143.37365722656</ele>
        <time>2012-06-05T08:45:12Z</time>
      </trkpt>
      <trkpt lat="48.06661" lon="2.94362">
        <ele>142.89306640625</ele>
        <time>2012-06-05T08:45:20Z</time>
      </trkpt>
      <trkpt lat="48.06662" lon="2.94334">
        <ele>140.97045898438</ele>
        <time>2012-06-05T08:45:34Z</time>
      </trkpt>
      <trkpt lat="48.06662" lon="2.94328">
        <ele>139.52844238281</ele>
        <time>2012-06-05T08:45:54Z</time>
      </trkpt>
      <trkpt lat="48.06661" lon="2.94302">
        <ele>137.60583496094</ele>
        <time>2012-06-05T08:46:07Z</time>
      </trkpt>
      <trkpt lat="48.06661" lon="2.94291">
        <ele>137.12524414062</ele>
        <time>2012-06-05T08:46:12Z</time>
      </trkpt>
      <trkpt lat="48.06663" lon="2.94259">
        <ele>136.16394042969</ele>
        <time>2012-06-05T08:46:27Z</time>
      </trkpt>
      <trkpt lat="48.06662" lon="2.94247">
        <ele>136.16394042969</ele>
        <time>2012-06-05T08:46:33Z</time>
      </trkpt>
      <trkpt lat="48.06662" lon="2.94241">
        <ele>136.64465332031</ele>
        <time>2012-06-05T08:46:36Z</time>
      </trkpt>
      <trkpt lat="48.06661" lon="2.94234">
        <ele>137.12524414062</ele>
        <time>2012-06-05T08:46:40Z</time>
      </trkpt>
      <trkpt lat="48.06656" lon="2.94193">
        <ele>136.64465332031</ele>
        <time>2012-06-05T08:46:57Z</time>
      </trkpt>
      <trkpt lat="48.06648" lon="2.94173">
        <ele>137.12524414062</ele>
        <time>2012-06-05T08:47:08Z</time>
      </trkpt>
      <trkpt lat="48.06635" lon="2.94149">
        <ele>138.08654785156</ele>
        <time>2012-06-05T08:47:21Z</time>
      </trkpt>
      <trkpt lat="48.06628" lon="2.94126">
        <ele>136.64465332031</ele>
        <time>2012-06-05T08:47:34Z</time>
      </trkpt>
      <trkpt lat="48.0662" lon="2.94106">
        <ele>134.72192382812</ele>
        <time>2012-06-05T08:47:45Z</time>
      </trkpt>
      <trkpt lat="48.06611" lon="2.94076">
        <ele>134.72192382812</ele>
        <time>2012-06-05T08:47:59Z</time>
      </trkpt>
      <trkpt lat="48.06608" lon="2.94059">
        <ele>132.31860351562</ele>
        <time>2012-06-05T08:48:07Z</time>
      </trkpt>
      <trkpt lat="48.06603" lon="2.94025">
        <ele>129.91528320312</ele>
        <time>2012-06-05T08:48:22Z</time>
      </trkpt>
      <trkpt lat="48.06599" lon="2.94011">
        <ele>128.47338867188</ele>
        <time>2012-06-05T08:48:29Z</time>
      </trkpt>
      <trkpt lat="48.06592" lon="2.9398">
        <ele>127.99255371094</ele>
        <time>2012-06-05T08:48:45Z</time>
      </trkpt>
      <trkpt lat="48.06589" lon="2.9396">
        <ele>124.14733886719</ele>
        <time>2012-06-05T08:48:57Z</time>
      </trkpt>
      <trkpt lat="48.06586" lon="2.93958">
        <ele>124.14733886719</ele>
        <time>2012-06-05T08:49:13Z</time>
      </trkpt>
      <trkpt lat="48.06586" lon="2.93958">
        <ele>124.14733886719</ele>
        <time>2012-06-05T08:49:15Z</time>
      </trkpt>
      <trkpt lat="48.06581" lon="2.93972">
        <ele>125.10876464844</ele>
        <time>2012-06-05T08:49:23Z</time>
      </trkpt>
      <trkpt lat="48.06575" lon="2.93985">
        <ele>124.14733886719</ele>
        <time>2012-06-05T08:49:31Z</time>
      </trkpt>
      <trkpt lat="48.06567" lon="2.94009">
        <ele>122.70544433594</ele>
        <time>2012-06-05T08:49:44Z</time>
      </trkpt>
      <trkpt lat="48.06564" lon="2.94037">
        <ele>122.22473144531</ele>
        <time>2012-06-05T08:49:58Z</time>
      </trkpt>
      <trkpt lat="48.06562" lon="2.94045">
        <ele>121.744140625</ele>
        <time>2012-06-05T08:50:02Z</time>
      </trkpt>
      <trkpt lat="48.06559" lon="2.94056">
        <ele>121.744140625</ele>
        <time>2012-06-05T08:50:08Z</time>
      </trkpt>
      <trkpt lat="48.06557" lon="2.94078">
        <ele>125.10876464844</ele>
        <time>2012-06-05T08:50:20Z</time>
      </trkpt>
      <trkpt lat="48.06555" lon="2.94089">
        <ele>126.06994628906</ele>
        <time>2012-06-05T08:50:27Z</time>
      </trkpt>
      <trkpt lat="48.06547" lon="2.94129">
        <ele>124.14733886719</ele>
        <time>2012-06-05T08:50:46Z</time>
      </trkpt>
      <trkpt lat="48.06546" lon="2.94135">
        <ele>124.14733886719</ele>
        <time>2012-06-05T08:50:50Z</time>
      </trkpt>
      <trkpt lat="48.06546" lon="2.94139">
        <ele>123.66674804688</ele>
        <time>2012-06-05T08:50:52Z</time>
      </trkpt>
      <trkpt lat="48.06543" lon="2.94161">
        <ele>123.18615722656</ele>
        <time>2012-06-05T08:51:05Z</time>
      </trkpt>
      <trkpt lat="48.0654" lon="2.94169">
        <ele>123.66674804688</ele>
        <time>2012-06-05T08:51:09Z</time>
      </trkpt>
      <trkpt lat="48.06529" lon="2.942">
        <ele>127.99255371094</ele>
        <time>2012-06-05T08:51:22Z</time>
      </trkpt>
      <trkpt lat="48.06523" lon="2.94229">
        <ele>131.35729980469</ele>
        <time>2012-06-05T08:51:36Z</time>
      </trkpt>
      <trkpt lat="48.06523" lon="2.94233">
        <ele>131.837890625</ele>
        <time>2012-06-05T08:51:38Z</time>
      </trkpt>
      <trkpt lat="48.06519" lon="2.94246">
        <ele>133.76049804688</ele>
        <time>2012-06-05T08:51:45Z</time>
      </trkpt>
      <trkpt lat="48.0651" lon="2.94282">
        <ele>138.56726074219</ele>
        <time>2012-06-05T08:52:00Z</time>
      </trkpt>
      <trkpt lat="48.06498" lon="2.94332">
        <ele>136.64465332031</ele>
        <time>2012-06-05T08:52:27Z</time>
      </trkpt>
      <trkpt lat="48.0649" lon="2.94359">
        <ele>137.12524414062</ele>
        <time>2012-06-05T08:52:40Z</time>
      </trkpt>
      <trkpt lat="48.06484" lon="2.94382">
        <ele>139.52844238281</ele>
        <time>2012-06-05T08:52:52Z</time>
      </trkpt>
      <trkpt lat="48.06474" lon="2.94409">
        <ele>139.52844238281</ele>
        <time>2012-06-05T08:53:04Z</time>
      </trkpt>
      <trkpt lat="48.0646" lon="2.9443">
        <ele>139.52844238281</ele>
        <time>2012-06-05T08:53:18Z</time>
      </trkpt>
      <trkpt lat="48.06454" lon="2.9444">
        <ele>140.97045898438</ele>
        <time>2012-06-05T08:53:29Z</time>
      </trkpt>
      <trkpt lat="48.06448" lon="2.94445">
        <ele>141.93176269531</ele>
        <time>2012-06-05T08:53:42Z</time>
      </trkpt>
      <trkpt lat="48.0644" lon="2.94463">
        <ele>141.93176269531</ele>
        <time>2012-06-05T08:53:55Z</time>
      </trkpt>
      <trkpt lat="48.06433" lon="2.94474">
        <ele>142.41247558594</ele>
        <time>2012-06-05T08:54:06Z</time>
      </trkpt>
      <trkpt lat="48.06421" lon="2.94491">
        <ele>142.89306640625</ele>
        <time>2012-06-05T08:54:19Z</time>
      </trkpt>
      <trkpt lat="48.0641" lon="2.94504">
        <ele>143.85437011719</ele>
        <time>2012-06-05T08:54:29Z</time>
      </trkpt>
      <trkpt lat="48.06397" lon="2.94519">
        <ele>146.2578125</ele>
        <time>2012-06-05T08:54:41Z</time>
      </trkpt>
      <trkpt lat="48.06382" lon="2.94541">
        <ele>144.81579589844</ele>
        <time>2012-06-05T08:54:55Z</time>
      </trkpt>
      <trkpt lat="48.0637" lon="2.94557">
        <ele>145.77709960938</ele>
        <time>2012-06-05T08:55:08Z</time>
      </trkpt>
      <trkpt lat="48.06364" lon="2.94566">
        <ele>146.2578125</ele>
        <time>2012-06-05T08:55:14Z</time>
      </trkpt>
      <trkpt lat="48.06354" lon="2.94578">
        <ele>147.69970703125</ele>
        <time>2012-06-05T08:55:22Z</time>
      </trkpt>
      <trkpt lat="48.06338" lon="2.94603">
        <ele>148.66101074219</ele>
        <time>2012-06-05T08:55:38Z</time>
      </trkpt>
      <trkpt lat="48.06325" lon="2.9462">
        <ele>150.10302734375</ele>
        <time>2012-06-05T08:55:51Z</time>
      </trkpt>
      <trkpt lat="48.06315" lon="2.94636">
        <ele>152.02575683594</ele>
        <time>2012-06-05T08:56:01Z</time>
      </trkpt>
      <trkpt lat="48.06299" lon="2.9465">
        <ele>153.46765136719</ele>
        <time>2012-06-05T08:56:15Z</time>
      </trkpt>
      <trkpt lat="48.06296" lon="2.94653">
        <ele>152.50634765625</ele>
        <time>2012-06-05T08:56:25Z</time>
      </trkpt>
      <trkpt lat="48.06277" lon="2.94667">
        <ele>150.10302734375</ele>
        <time>2012-06-05T08:56:41Z</time>
      </trkpt>
      <trkpt lat="48.06262" lon="2.94688">
        <ele>147.69970703125</ele>
        <time>2012-06-05T08:56:54Z</time>
      </trkpt>
      <trkpt lat="48.06248" lon="2.947">
        <ele>149.1416015625</ele>
        <time>2012-06-05T08:57:06Z</time>
      </trkpt>
      <trkpt lat="48.06234" lon="2.94717">
        <ele>151.06420898438</ele>
        <time>2012-06-05T08:57:19Z</time>
      </trkpt>
      <trkpt lat="48.06219" lon="2.94729">
        <ele>148.18041992188</ele>
        <time>2012-06-05T08:57:32Z</time>
      </trkpt>
      <trkpt lat="48.06204" lon="2.94743">
        <ele>149.1416015625</ele>
        <time>2012-06-05T08:57:46Z</time>
      </trkpt>
      <trkpt lat="48.06196" lon="2.94754">
        <ele>149.62231445312</ele>
        <time>2012-06-05T08:57:54Z</time>
      </trkpt>
      <trkpt lat="48.06178" lon="2.9477">
        <ele>149.1416015625</ele>
        <time>2012-06-05T08:58:08Z</time>
      </trkpt>
      <trkpt lat="48.06168" lon="2.94781">
        <ele>149.1416015625</ele>
        <time>2012-06-05T08:58:16Z</time>
      </trkpt>
      <trkpt lat="48.06163" lon="2.94783">
        <ele>148.66101074219</ele>
        <time>2012-06-05T08:58:20Z</time>
      </trkpt>
      <trkpt lat="48.06154" lon="2.9479">
        <ele>148.66101074219</ele>
        <time>2012-06-05T08:58:32Z</time>
      </trkpt>
      <trkpt lat="48.06135" lon="2.94808">
        <ele>148.66101074219</ele>
        <time>2012-06-05T08:58:48Z</time>
      </trkpt>
      <trkpt lat="48.06126" lon="2.94821">
        <ele>149.1416015625</ele>
        <time>2012-06-05T08:58:57Z</time>
      </trkpt>
      <trkpt lat="48.06105" lon="2.94837">
        <ele>148.66101074219</ele>
        <time>2012-06-05T08:59:13Z</time>
      </trkpt>
      <trkpt lat="48.06089" lon="2.94859">
        <ele>148.18041992188</ele>
        <time>2012-06-05T08:59:27Z</time>
      </trkpt>
      <trkpt lat="48.06073" lon="2.94873">
        <ele>150.10302734375</ele>
        <time>2012-06-05T08:59:40Z</time>
      </trkpt>
      <trkpt lat="48.06068" lon="2.94877">
        <ele>149.62231445312</ele>
        <time>2012-06-05T08:59:44Z</time>
      </trkpt>
      <trkpt lat="48.06062" lon="2.94881">
        <ele>149.1416015625</ele>
        <time>2012-06-05T08:59:49Z</time>
      </trkpt>
      <trkpt lat="48.06044" lon="2.94905">
        <ele>145.77709960938</ele>
        <time>2012-06-05T09:00:04Z</time>
      </trkpt>
      <trkpt lat="48.06027" lon="2.94922">
        <ele>145.29638671875</ele>
        <time>2012-06-05T09:00:17Z</time>
      </trkpt>
      <trkpt lat="48.06012" lon="2.94933">
        <ele>146.2578125</ele>
        <time>2012-06-05T09:00:29Z</time>
      </trkpt>
      <trkpt lat="48.06008" lon="2.94935">
        <ele>146.2578125</ele>
        <time>2012-06-05T09:00:32Z</time>
      </trkpt>
      <trkpt lat="48.06001" lon="2.94942">
        <ele>146.73840332031</ele>
        <time>2012-06-05T09:00:45Z</time>
      </trkpt>
      <trkpt lat="48.05993" lon="2.94951">
        <ele>148.66101074219</ele>
        <time>2012-06-05T09:00:54Z</time>
      </trkpt>
      <trkpt lat="48.05977" lon="2.94969">
        <ele>152.02575683594</ele>
        <time>2012-06-05T09:01:10Z</time>
      </trkpt>
      <trkpt lat="48.05962" lon="2.94982">
        <ele>152.02575683594</ele>
        <time>2012-06-05T09:01:24Z</time>
      </trkpt>
      <trkpt lat="48.05943" lon="2.95002">
        <ele>153.46765136719</ele>
        <time>2012-06-05T09:01:41Z</time>
      </trkpt>
      <trkpt lat="48.05936" lon="2.95011">
        <ele>153.94836425781</ele>
        <time>2012-06-05T09:01:48Z</time>
      </trkpt>
      <trkpt lat="48.05914" lon="2.9503">
        <ele>153.94836425781</ele>
        <time>2012-06-05T09:02:04Z</time>
      </trkpt>
      <trkpt lat="48.05899" lon="2.95041">
        <ele>155.39025878906</ele>
        <time>2012-06-05T09:02:16Z</time>
      </trkpt>
      <trkpt lat="48.05891" lon="2.95047">
        <ele>154.42895507812</ele>
        <time>2012-06-05T09:02:29Z</time>
      </trkpt>
      <trkpt lat="48.05886" lon="2.95051">
        <ele>152.02575683594</ele>
        <time>2012-06-05T09:02:34Z</time>
      </trkpt>
      <trkpt lat="48.05872" lon="2.95062">
        <ele>151.06420898438</ele>
        <time>2012-06-05T09:02:59Z</time>
      </trkpt>
      <trkpt lat="48.05841" lon="2.95092">
        <ele>151.06420898438</ele>
        <time>2012-06-05T09:03:25Z</time>
      </trkpt>
      <trkpt lat="48.05836" lon="2.95099">
        <ele>150.58361816406</ele>
        <time>2012-06-05T09:03:30Z</time>
      </trkpt>
      <trkpt lat="48.05825" lon="2.95116">
        <ele>149.62231445312</ele>
        <time>2012-06-05T09:03:39Z</time>
      </trkpt>
      <trkpt lat="48.05822" lon="2.9512">
        <ele>149.62231445312</ele>
        <time>2012-06-05T09:03:42Z</time>
      </trkpt>
      <trkpt lat="48.05808" lon="2.95145">
        <ele>148.66101074219</ele>
        <time>2012-06-05T09:03:58Z</time>
      </trkpt>
      <trkpt lat="48.05804" lon="2.95155">
        <ele>148.66101074219</ele>
        <time>2012-06-05T09:04:02Z</time>
      </trkpt>
      <trkpt lat="48.05797" lon="2.95171">
        <ele>149.62231445312</ele>
        <time>2012-06-05T09:04:12Z</time>
      </trkpt>
      <trkpt lat="48.05795" lon="2.95176">
        <ele>150.10302734375</ele>
        <time>2012-06-05T09:04:15Z</time>
      </trkpt>
      <trkpt lat="48.0579" lon="2.95198">
        <ele>150.58361816406</ele>
        <time>2012-06-05T09:04:26Z</time>
      </trkpt>
      <trkpt lat="48.05785" lon="2.95223">
        <ele>149.1416015625</ele>
        <time>2012-06-05T09:04:37Z</time>
      </trkpt>
      <trkpt lat="48.05779" lon="2.95252">
        <ele>149.62231445312</ele>
        <time>2012-06-05T09:04:51Z</time>
      </trkpt>
      <trkpt lat="48.05777" lon="2.95262">
        <ele>149.62231445312</ele>
        <time>2012-06-05T09:04:56Z</time>
      </trkpt>
      <trkpt lat="48.05777" lon="2.95275">
        <ele>150.10302734375</ele>
        <time>2012-06-05T09:05:02Z</time>
      </trkpt>
      <trkpt lat="48.05774" lon="2.95294">
        <ele>151.06420898438</ele>
        <time>2012-06-05T09:05:13Z</time>
      </trkpt>
      <trkpt lat="48.05771" lon="2.95305">
        <ele>151.544921875</ele>
        <time>2012-06-05T09:05:19Z</time>
      </trkpt>
      <trkpt lat="48.05767" lon="2.95332">
        <ele>152.98693847656</ele>
        <time>2012-06-05T09:05:32Z</time>
      </trkpt>
      <trkpt lat="48.05767" lon="2.95333">
        <ele>152.98693847656</ele>
        <time>2012-06-05T09:05:33Z</time>
      </trkpt>
      <trkpt lat="48.05766" lon="2.95345">
        <ele>152.98693847656</ele>
        <time>2012-06-05T09:05:39Z</time>
      </trkpt>
      <trkpt lat="48.05765" lon="2.95365">
        <ele>155.39025878906</ele>
        <time>2012-06-05T09:05:50Z</time>
      </trkpt>
      <trkpt lat="48.05748" lon="2.95381">
        <ele>152.50634765625</ele>
        <time>2012-06-05T09:06:05Z</time>
      </trkpt>
      <trkpt lat="48.05741" lon="2.95381">
        <ele>152.98693847656</ele>
        <time>2012-06-05T09:06:22Z</time>
      </trkpt>
      <trkpt lat="48.05729" lon="2.95384">
        <ele>152.50634765625</ele>
        <time>2012-06-05T09:06:37Z</time>
      </trkpt>
      <trkpt lat="48.05727" lon="2.95398">
        <ele>151.544921875</ele>
        <time>2012-06-05T09:06:45Z</time>
      </trkpt>
      <trkpt lat="48.05727" lon="2.95409">
        <ele>149.62231445312</ele>
        <time>2012-06-05T09:06:52Z</time>
      </trkpt>
      <trkpt lat="48.05728" lon="2.95435">
        <ele>149.62231445312</ele>
        <time>2012-06-05T09:07:04Z</time>
      </trkpt>
      <trkpt lat="48.05714" lon="2.95487">
        <ele>149.62231445312</ele>
        <time>2012-06-05T09:07:33Z</time>
      </trkpt>
      <trkpt lat="48.05712" lon="2.95495">
        <ele>149.1416015625</ele>
        <time>2012-06-05T09:07:37Z</time>
      </trkpt>
      <trkpt lat="48.05709" lon="2.95501">
        <ele>150.10302734375</ele>
        <time>2012-06-05T09:07:41Z</time>
      </trkpt>
      <trkpt lat="48.05704" lon="2.95534">
        <ele>153.46765136719</ele>
        <time>2012-06-05T09:07:57Z</time>
      </trkpt>
      <trkpt lat="48.05698" lon="2.95562">
        <ele>154.42895507812</ele>
        <time>2012-06-05T09:08:11Z</time>
      </trkpt>
      <trkpt lat="48.05696" lon="2.95593">
        <ele>154.42895507812</ele>
        <time>2012-06-05T09:08:27Z</time>
      </trkpt>
      <trkpt lat="48.05694" lon="2.95621">
        <ele>154.42895507812</ele>
        <time>2012-06-05T09:08:39Z</time>
      </trkpt>
      <trkpt lat="48.05694" lon="2.95623">
        <ele>154.42895507812</ele>
        <time>2012-06-05T09:08:40Z</time>
      </trkpt>
      <trkpt lat="48.05691" lon="2.95649">
        <ele>155.87097167969</ele>
        <time>2012-06-05T09:08:54Z</time>
      </trkpt>
      <trkpt lat="48.05691" lon="2.95661">
        <ele>156.83215332031</ele>
        <time>2012-06-05T09:08:59Z</time>
      </trkpt>
      <trkpt lat="48.05688" lon="2.95692">
        <ele>157.31286621094</ele>
        <time>2012-06-05T09:09:14Z</time>
      </trkpt>
      <trkpt lat="48.0569" lon="2.95714">
        <ele>154.42895507812</ele>
        <time>2012-06-05T09:09:27Z</time>
      </trkpt>
      <trkpt lat="48.05694" lon="2.9574">
        <ele>150.58361816406</ele>
        <time>2012-06-05T09:09:40Z</time>
      </trkpt>
      <trkpt lat="48.05695" lon="2.95762">
        <ele>147.69970703125</ele>
        <time>2012-06-05T09:09:52Z</time>
      </trkpt>
      <trkpt lat="48.05692" lon="2.95792">
        <ele>146.2578125</ele>
        <time>2012-06-05T09:10:06Z</time>
      </trkpt>
      <trkpt lat="48.05692" lon="2.95798">
        <ele>147.21899414062</ele>
        <time>2012-06-05T09:10:09Z</time>
      </trkpt>
      <trkpt lat="48.05689" lon="2.95807">
        <ele>148.18041992188</ele>
        <time>2012-06-05T09:10:15Z</time>
      </trkpt>
      <trkpt lat="48.05685" lon="2.95827">
        <ele>147.69970703125</ele>
        <time>2012-06-05T09:10:26Z</time>
      </trkpt>
      <trkpt lat="48.05684" lon="2.95828">
        <ele>147.69970703125</ele>
        <time>2012-06-05T09:10:27Z</time>
      </trkpt>
      <trkpt lat="48.05683" lon="2.9585">
        <ele>146.2578125</ele>
        <time>2012-06-05T09:10:38Z</time>
      </trkpt>
      <trkpt lat="48.05683" lon="2.95861">
        <ele>142.89306640625</ele>
        <time>2012-06-05T09:10:53Z</time>
      </trkpt>
      <trkpt lat="48.05683" lon="2.95865">
        <ele>142.41247558594</ele>
        <time>2012-06-05T09:10:55Z</time>
      </trkpt>
      <trkpt lat="48.05688" lon="2.95874">
        <ele>141.45104980469</ele>
        <time>2012-06-05T09:11:01Z</time>
      </trkpt>
      <trkpt lat="48.05699" lon="2.95877">
        <ele>139.52844238281</ele>
        <time>2012-06-05T09:11:10Z</time>
      </trkpt>
      <trkpt lat="48.05717" lon="2.95878">
        <ele>140.48986816406</ele>
        <time>2012-06-05T09:11:24Z</time>
      </trkpt>
      <trkpt lat="48.05731" lon="2.95876">
        <ele>146.73840332031</ele>
        <time>2012-06-05T09:11:33Z</time>
      </trkpt>
      <trkpt lat="48.05735" lon="2.95875">
        <ele>147.21899414062</ele>
        <time>2012-06-05T09:11:43Z</time>
      </trkpt>
      <trkpt lat="48.05764" lon="2.95875">
        <ele>147.69970703125</ele>
        <time>2012-06-05T09:12:04Z</time>
      </trkpt>
      <trkpt lat="48.05775" lon="2.95872">
        <ele>147.69970703125</ele>
        <time>2012-06-05T09:12:13Z</time>
      </trkpt>
      <trkpt lat="48.05792" lon="2.95866">
        <ele>149.62231445312</ele>
        <time>2012-06-05T09:12:25Z</time>
      </trkpt>
      <trkpt lat="48.05799" lon="2.95865">
        <ele>149.1416015625</ele>
        <time>2012-06-05T09:12:31Z</time>
      </trkpt>
      <trkpt lat="48.05815" lon="2.95865">
        <ele>149.1416015625</ele>
        <time>2012-06-05T09:12:43Z</time>
      </trkpt>
      <trkpt lat="48.0583" lon="2.95862">
        <ele>151.06420898438</ele>
        <time>2012-06-05T09:12:53Z</time>
      </trkpt>
      <trkpt lat="48.05833" lon="2.95861">
        <ele>151.06420898438</ele>
        <time>2012-06-05T09:12:56Z</time>
      </trkpt>
      <trkpt lat="48.05841" lon="2.95861">
        <ele>151.544921875</ele>
        <time>2012-06-05T09:13:09Z</time>
      </trkpt>
      <trkpt lat="48.05857" lon="2.95861">
        <ele>150.58361816406</ele>
        <time>2012-06-05T09:13:24Z</time>
      </trkpt>
      <trkpt lat="48.05881" lon="2.95861">
        <ele>150.58361816406</ele>
        <time>2012-06-05T09:13:40Z</time>
      </trkpt>
      <trkpt lat="48.05904" lon="2.95866">
        <ele>149.62231445312</ele>
        <time>2012-06-05T09:13:57Z</time>
      </trkpt>
      <trkpt lat="48.05928" lon="2.95873">
        <ele>149.62231445312</ele>
        <time>2012-06-05T09:14:12Z</time>
      </trkpt>
      <trkpt lat="48.05948" lon="2.95881">
        <ele>150.58361816406</ele>
        <time>2012-06-05T09:14:27Z</time>
      </trkpt>
      <trkpt lat="48.05964" lon="2.95889">
        <ele>149.62231445312</ele>
        <time>2012-06-05T09:14:41Z</time>
      </trkpt>
      <trkpt lat="48.05982" lon="2.95896">
        <ele>148.18041992188</ele>
        <time>2012-06-05T09:14:55Z</time>
      </trkpt>
      <trkpt lat="48.05985" lon="2.95898">
        <ele>148.18041992188</ele>
        <time>2012-06-05T09:14:57Z</time>
      </trkpt>
      <trkpt lat="48.05996" lon="2.95901">
        <ele>147.69970703125</ele>
        <time>2012-06-05T09:15:05Z</time>
      </trkpt>
      <trkpt lat="48.06005" lon="2.95903">
        <ele>147.69970703125</ele>
        <time>2012-06-05T09:15:13Z</time>
      </trkpt>
      <trkpt lat="48.0601" lon="2.95905">
        <ele>147.69970703125</ele>
        <time>2012-06-05T09:15:17Z</time>
      </trkpt>
      <trkpt lat="48.06023" lon="2.95914">
        <ele>146.2578125</ele>
        <time>2012-06-05T09:15:28Z</time>
      </trkpt>
      <trkpt lat="48.06039" lon="2.95917">
        <ele>145.77709960938</ele>
        <time>2012-06-05T09:15:39Z</time>
      </trkpt>
      <trkpt lat="48.0606" lon="2.95929">
        <ele>145.77709960938</ele>
        <time>2012-06-05T09:15:55Z</time>
      </trkpt>
      <trkpt lat="48.06062" lon="2.9593">
        <ele>145.77709960938</ele>
        <time>2012-06-05T09:15:57Z</time>
      </trkpt>
      <trkpt lat="48.06071" lon="2.95933">
        <ele>145.77709960938</ele>
        <time>2012-06-05T09:16:03Z</time>
      </trkpt>
      <trkpt lat="48.06078" lon="2.95937">
        <ele>145.77709960938</ele>
        <time>2012-06-05T09:16:08Z</time>
      </trkpt>
      <trkpt lat="48.061" lon="2.9595">
        <ele>145.29638671875</ele>
        <time>2012-06-05T09:16:25Z</time>
      </trkpt>
      <trkpt lat="48.06118" lon="2.95957">
        <ele>146.73840332031</ele>
        <time>2012-06-05T09:16:36Z</time>
      </trkpt>
      <trkpt lat="48.06132" lon="2.95967">
        <ele>147.69970703125</ele>
        <time>2012-06-05T09:16:48Z</time>
      </trkpt>
      <trkpt lat="48.06146" lon="2.95975">
        <ele>146.73840332031</ele>
        <time>2012-06-05T09:16:59Z</time>
      </trkpt>
      <trkpt lat="48.06147" lon="2.95976">
        <ele>146.73840332031</ele>
        <time>2012-06-05T09:17:00Z</time>
      </trkpt>
      <trkpt lat="48.0616" lon="2.95981">
        <ele>145.77709960938</ele>
        <time>2012-06-05T09:17:09Z</time>
      </trkpt>
      <trkpt lat="48.0618" lon="2.95994">
        <ele>145.29638671875</ele>
        <time>2012-06-05T09:17:24Z</time>
      </trkpt>
      <trkpt lat="48.06201" lon="2.96004">
        <ele>144.33520507812</ele>
        <time>2012-06-05T09:17:41Z</time>
      </trkpt>
      <trkpt lat="48.06216" lon="2.96012">
        <ele>144.81579589844</ele>
        <time>2012-06-05T09:17:52Z</time>
      </trkpt>
      <trkpt lat="48.06229" lon="2.9602">
        <ele>142.89306640625</ele>
        <time>2012-06-05T09:18:03Z</time>
      </trkpt>
      <trkpt lat="48.0624" lon="2.96023">
        <ele>143.85437011719</ele>
        <time>2012-06-05T09:18:10Z</time>
      </trkpt>
      <trkpt lat="48.06241" lon="2.96034">
        <ele>144.81579589844</ele>
        <time>2012-06-05T09:18:16Z</time>
      </trkpt>
      <trkpt lat="48.06239" lon="2.96049">
        <ele>146.2578125</ele>
        <time>2012-06-05T09:18:23Z</time>
      </trkpt>
      <trkpt lat="48.06242" lon="2.96065">
        <ele>149.1416015625</ele>
        <time>2012-06-05T09:18:30Z</time>
      </trkpt>
      <trkpt lat="48.06238" lon="2.96075">
        <ele>149.1416015625</ele>
        <time>2012-06-05T09:18:35Z</time>
      </trkpt>
      <trkpt lat="48.06236" lon="2.96084">
        <ele>149.62231445312</ele>
        <time>2012-06-05T09:18:39Z</time>
      </trkpt>
      <trkpt lat="48.06238" lon="2.96093">
        <ele>150.10302734375</ele>
        <time>2012-06-05T09:18:43Z</time>
      </trkpt>
      <trkpt lat="48.0624" lon="2.96106">
        <ele>150.58361816406</ele>
        <time>2012-06-05T09:18:48Z</time>
      </trkpt>
      <trkpt lat="48.06236" lon="2.96119">
        <ele>150.58361816406</ele>
        <time>2012-06-05T09:18:55Z</time>
      </trkpt>
      <trkpt lat="48.06236" lon="2.96124">
        <ele>150.58361816406</ele>
        <time>2012-06-05T09:18:58Z</time>
      </trkpt>
      <trkpt lat="48.0624" lon="2.96142">
        <ele>152.50634765625</ele>
        <time>2012-06-05T09:19:05Z</time>
      </trkpt>
      <trkpt lat="48.06237" lon="2.96156">
        <ele>152.50634765625</ele>
        <time>2012-06-05T09:19:12Z</time>
      </trkpt>
      <trkpt lat="48.06241" lon="2.96174">
        <ele>153.94836425781</ele>
        <time>2012-06-05T09:19:20Z</time>
      </trkpt>
      <trkpt lat="48.0624" lon="2.96181">
        <ele>153.94836425781</ele>
        <time>2012-06-05T09:19:24Z</time>
      </trkpt>
      <trkpt lat="48.06238" lon="2.96186">
        <ele>152.98693847656</ele>
        <time>2012-06-05T09:19:27Z</time>
      </trkpt>
      <trkpt lat="48.06236" lon="2.96197">
        <ele>151.06420898438</ele>
        <time>2012-06-05T09:19:32Z</time>
      </trkpt>
      <trkpt lat="48.06239" lon="2.9621">
        <ele>151.06420898438</ele>
        <time>2012-06-05T09:19:38Z</time>
      </trkpt>
      <trkpt lat="48.06241" lon="2.96217">
        <ele>152.02575683594</ele>
        <time>2012-06-05T09:19:41Z</time>
      </trkpt>
      <trkpt lat="48.06242" lon="2.96222">
        <ele>152.50634765625</ele>
        <time>2012-06-05T09:19:44Z</time>
      </trkpt>
      <trkpt lat="48.06241" lon="2.96225">
        <ele>152.50634765625</ele>
        <time>2012-06-05T09:19:56Z</time>
      </trkpt>
      <trkpt lat="48.0623" lon="2.96265">
        <ele>154.90954589844</ele>
        <time>2012-06-05T09:20:16Z</time>
      </trkpt>
      <trkpt lat="48.06234" lon="2.96288">
        <ele>153.94836425781</ele>
        <time>2012-06-05T09:20:26Z</time>
      </trkpt>
      <trkpt lat="48.06237" lon="2.96302">
        <ele>151.544921875</ele>
        <time>2012-06-05T09:20:34Z</time>
      </trkpt>
      <trkpt lat="48.06236" lon="2.96305">
        <ele>151.06420898438</ele>
        <time>2012-06-05T09:20:36Z</time>
      </trkpt>
      <trkpt lat="48.06237" lon="2.96312">
        <ele>150.58361816406</ele>
        <time>2012-06-05T09:20:39Z</time>
      </trkpt>
      <trkpt lat="48.0624" lon="2.96326">
        <ele>150.58361816406</ele>
        <time>2012-06-05T09:20:45Z</time>
      </trkpt>
      <trkpt lat="48.06241" lon="2.96348">
        <ele>151.544921875</ele>
        <time>2012-06-05T09:20:55Z</time>
      </trkpt>
      <trkpt lat="48.06241" lon="2.96349">
        <ele>151.544921875</ele>
        <time>2012-06-05T09:20:56Z</time>
      </trkpt>
      <trkpt lat="48.0624" lon="2.96353">
        <ele>151.544921875</ele>
        <time>2012-06-05T09:20:58Z</time>
      </trkpt>
      <trkpt lat="48.06242" lon="2.96363">
        <ele>152.02575683594</ele>
        <time>2012-06-05T09:21:03Z</time>
      </trkpt>
      <trkpt lat="48.06241" lon="2.96368">
        <ele>152.02575683594</ele>
        <time>2012-06-05T09:21:06Z</time>
      </trkpt>
      <trkpt lat="48.06242" lon="2.96392">
        <ele>152.50634765625</ele>
        <time>2012-06-05T09:21:17Z</time>
      </trkpt>
      <trkpt lat="48.06242" lon="2.96397">
        <ele>151.544921875</ele>
        <time>2012-06-05T09:21:20Z</time>
      </trkpt>
      <trkpt lat="48.06241" lon="2.96399">
        <ele>150.10302734375</ele>
        <time>2012-06-05T09:21:22Z</time>
      </trkpt>
      <trkpt lat="48.06242" lon="2.96418">
        <ele>150.58361816406</ele>
        <time>2012-06-05T09:21:31Z</time>
      </trkpt>
      <trkpt lat="48.06241" lon="2.96439">
        <ele>149.62231445312</ele>
        <time>2012-06-05T09:21:41Z</time>
      </trkpt>
      <trkpt lat="48.06242" lon="2.96446">
        <ele>150.10302734375</ele>
        <time>2012-06-05T09:21:44Z</time>
      </trkpt>
      <trkpt lat="48.06239" lon="2.9646">
        <ele>150.10302734375</ele>
        <time>2012-06-05T09:21:51Z</time>
      </trkpt>
      <trkpt lat="48.06242" lon="2.96475">
        <ele>150.58361816406</ele>
        <time>2012-06-05T09:21:58Z</time>
      </trkpt>
      <trkpt lat="48.06241" lon="2.9648">
        <ele>150.10302734375</ele>
        <time>2012-06-05T09:22:01Z</time>
      </trkpt>
      <trkpt lat="48.06245" lon="2.96503">
        <ele>150.58361816406</ele>
        <time>2012-06-05T09:22:11Z</time>
      </trkpt>
      <trkpt lat="48.06242" lon="2.9651">
        <ele>151.06420898438</ele>
        <time>2012-06-05T09:22:15Z</time>
      </trkpt>
      <trkpt lat="48.06245" lon="2.96525">
        <ele>152.02575683594</ele>
        <time>2012-06-05T09:22:22Z</time>
      </trkpt>
      <trkpt lat="48.06242" lon="2.96534">
        <ele>152.98693847656</ele>
        <time>2012-06-05T09:22:27Z</time>
      </trkpt>
      <trkpt lat="48.06243" lon="2.96542">
        <ele>153.46765136719</ele>
        <time>2012-06-05T09:22:31Z</time>
      </trkpt>
      <trkpt lat="48.06244" lon="2.96547">
        <ele>153.94836425781</ele>
        <time>2012-06-05T09:22:33Z</time>
      </trkpt>
      <trkpt lat="48.06244" lon="2.96552">
        <ele>153.94836425781</ele>
        <time>2012-06-05T09:22:36Z</time>
      </trkpt>
      <trkpt lat="48.06243" lon="2.96573">
        <ele>154.90954589844</ele>
        <time>2012-06-05T09:22:46Z</time>
      </trkpt>
      <trkpt lat="48.06244" lon="2.96581">
        <ele>154.42895507812</ele>
        <time>2012-06-05T09:22:50Z</time>
      </trkpt>
      <trkpt lat="48.06242" lon="2.96588">
        <ele>153.94836425781</ele>
        <time>2012-06-05T09:22:54Z</time>
      </trkpt>
      <trkpt lat="48.06241" lon="2.96593">
        <ele>153.46765136719</ele>
        <time>2012-06-05T09:22:56Z</time>
      </trkpt>
      <trkpt lat="48.06243" lon="2.96602">
        <ele>153.46765136719</ele>
        <time>2012-06-05T09:23:00Z</time>
      </trkpt>
      <trkpt lat="48.06244" lon="2.96608">
        <ele>152.98693847656</ele>
        <time>2012-06-05T09:23:02Z</time>
      </trkpt>
      <trkpt lat="48.06242" lon="2.96632">
        <ele>150.58361816406</ele>
        <time>2012-06-05T09:23:14Z</time>
      </trkpt>
      <trkpt lat="48.06243" lon="2.96642">
        <ele>151.544921875</ele>
        <time>2012-06-05T09:23:19Z</time>
      </trkpt>
      <trkpt lat="48.06242" lon="2.96646">
        <ele>151.544921875</ele>
        <time>2012-06-05T09:23:21Z</time>
      </trkpt>
      <trkpt lat="48.06241" lon="2.96665">
        <ele>152.50634765625</ele>
        <time>2012-06-05T09:23:30Z</time>
      </trkpt>
      <trkpt lat="48.06241" lon="2.96668">
        <ele>152.50634765625</ele>
        <time>2012-06-05T09:23:32Z</time>
      </trkpt>
      <trkpt lat="48.06244" lon="2.96683">
        <ele>153.94836425781</ele>
        <time>2012-06-05T09:23:39Z</time>
      </trkpt>
      <trkpt lat="48.0624" lon="2.96691">
        <ele>154.42895507812</ele>
        <time>2012-06-05T09:23:44Z</time>
      </trkpt>
      <trkpt lat="48.06242" lon="2.96707">
        <ele>154.42895507812</ele>
        <time>2012-06-05T09:23:51Z</time>
      </trkpt>
      <trkpt lat="48.0624" lon="2.96713">
        <ele>154.90954589844</ele>
        <time>2012-06-05T09:23:55Z</time>
      </trkpt>
      <trkpt lat="48.0624" lon="2.96724">
        <ele>156.3515625</ele>
        <time>2012-06-05T09:24:04Z</time>
      </trkpt>
      <trkpt lat="48.06241" lon="2.96756">
        <ele>160.19689941406</ele>
        <time>2012-06-05T09:24:30Z</time>
      </trkpt>
      <trkpt lat="48.06244" lon="2.96765">
        <ele>160.19689941406</ele>
        <time>2012-06-05T09:24:32Z</time>
      </trkpt>
      <trkpt lat="48.06249" lon="2.96777">
        <ele>158.75476074219</ele>
        <time>2012-06-05T09:24:37Z</time>
      </trkpt>
      <trkpt lat="48.06257" lon="2.96792">
        <ele>157.79357910156</ele>
        <time>2012-06-05T09:24:49Z</time>
      </trkpt>
      <trkpt lat="48.0627" lon="2.96808">
        <ele>157.79357910156</ele>
        <time>2012-06-05T09:25:08Z</time>
      </trkpt>
      <trkpt lat="48.06272" lon="2.96812">
        <ele>157.79357910156</ele>
        <time>2012-06-05T09:25:12Z</time>
      </trkpt>
      <trkpt lat="48.06279" lon="2.96828">
        <ele>157.31286621094</ele>
        <time>2012-06-05T09:25:23Z</time>
      </trkpt>
      <trkpt lat="48.06286" lon="2.96842">
        <ele>154.90954589844</ele>
        <time>2012-06-05T09:25:31Z</time>
      </trkpt>
      <trkpt lat="48.0629" lon="2.96847">
        <ele>154.90954589844</ele>
        <time>2012-06-05T09:25:36Z</time>
      </trkpt>
      <trkpt lat="48.06295" lon="2.96858">
        <ele>154.90954589844</ele>
        <time>2012-06-05T09:25:43Z</time>
      </trkpt>
      <trkpt lat="48.06305" lon="2.96874">
        <ele>152.50634765625</ele>
        <time>2012-06-05T09:25:52Z</time>
      </trkpt>
      <trkpt lat="48.06308" lon="2.9688">
        <ele>152.50634765625</ele>
        <time>2012-06-05T09:25:55Z</time>
      </trkpt>
      <trkpt lat="48.06312" lon="2.9689">
        <ele>152.50634765625</ele>
        <time>2012-06-05T09:26:01Z</time>
      </trkpt>
      <trkpt lat="48.0632" lon="2.96904">
        <ele>152.02575683594</ele>
        <time>2012-06-05T09:26:10Z</time>
      </trkpt>
      <trkpt lat="48.06322" lon="2.9691">
        <ele>151.544921875</ele>
        <time>2012-06-05T09:26:15Z</time>
      </trkpt>
      <trkpt lat="48.06328" lon="2.96918">
        <ele>151.06420898438</ele>
        <time>2012-06-05T09:26:27Z</time>
      </trkpt>
      <trkpt lat="48.06339" lon="2.96934">
        <ele>151.06420898438</ele>
        <time>2012-06-05T09:26:38Z</time>
      </trkpt>
      <trkpt lat="48.06348" lon="2.96951">
        <ele>149.1416015625</ele>
        <time>2012-06-05T09:26:52Z</time>
      </trkpt>
      <trkpt lat="48.06354" lon="2.96958">
        <ele>149.1416015625</ele>
        <time>2012-06-05T09:27:02Z</time>
      </trkpt>
      <trkpt lat="48.06385" lon="2.96993">
        <ele>149.1416015625</ele>
        <time>2012-06-05T09:27:28Z</time>
      </trkpt>
      <trkpt lat="48.06389" lon="2.96998">
        <ele>147.69970703125</ele>
        <time>2012-06-05T09:27:33Z</time>
      </trkpt>
      <trkpt lat="48.06392" lon="2.97002">
        <ele>146.73840332031</ele>
        <time>2012-06-05T09:27:36Z</time>
      </trkpt>
      <trkpt lat="48.06402" lon="2.9701">
        <ele>144.81579589844</ele>
        <time>2012-06-05T09:27:47Z</time>
      </trkpt>
      <trkpt lat="48.06407" lon="2.97015">
        <ele>144.33520507812</ele>
        <time>2012-06-05T09:27:56Z</time>
      </trkpt>
      <trkpt lat="48.06413" lon="2.97023">
        <ele>143.85437011719</ele>
        <time>2012-06-05T09:28:17Z</time>
      </trkpt>
      <trkpt lat="48.06419" lon="2.9703">
        <ele>143.85437011719</ele>
        <time>2012-06-05T09:28:24Z</time>
      </trkpt>
      <trkpt lat="48.06422" lon="2.97035">
        <ele>143.37365722656</ele>
        <time>2012-06-05T09:28:28Z</time>
      </trkpt>
      <trkpt lat="48.06428" lon="2.97044">
        <ele>144.33520507812</ele>
        <time>2012-06-05T09:28:35Z</time>
      </trkpt>
      <trkpt lat="48.06431" lon="2.97051">
        <ele>144.33520507812</ele>
        <time>2012-06-05T09:28:39Z</time>
      </trkpt>
      <trkpt lat="48.06435" lon="2.97057">
        <ele>144.33520507812</ele>
        <time>2012-06-05T09:28:44Z</time>
      </trkpt>
      <trkpt lat="48.06446" lon="2.97077">
        <ele>143.37365722656</ele>
        <time>2012-06-05T09:28:57Z</time>
      </trkpt>
      <trkpt lat="48.06446" lon="2.97079">
        <ele>143.37365722656</ele>
        <time>2012-06-05T09:28:58Z</time>
      </trkpt>
      <trkpt lat="48.06454" lon="2.97097">
        <ele>142.41247558594</ele>
        <time>2012-06-05T09:29:09Z</time>
      </trkpt>
      <trkpt lat="48.06458" lon="2.97118">
        <ele>139.52844238281</ele>
        <time>2012-06-05T09:29:20Z</time>
      </trkpt>
      <trkpt lat="48.06465" lon="2.97142">
        <ele>133.27990722656</ele>
        <time>2012-06-05T09:29:36Z</time>
      </trkpt>
      <trkpt lat="48.06485" lon="2.97181">
        <ele>121.744140625</ele>
        <time>2012-06-05T09:30:02Z</time>
      </trkpt>
      <trkpt lat="48.06491" lon="2.97199">
        <ele>119.3408203125</ele>
        <time>2012-06-05T09:30:12Z</time>
      </trkpt>
      <trkpt lat="48.06499" lon="2.97226">
        <ele>116.45678710938</ele>
        <time>2012-06-05T09:30:25Z</time>
      </trkpt>
      <trkpt lat="48.06504" lon="2.97236">
        <ele>115.01489257812</ele>
        <time>2012-06-05T09:30:31Z</time>
      </trkpt>
      <trkpt lat="48.06509" lon="2.97248">
        <ele>113.57299804688</ele>
        <time>2012-06-05T09:30:37Z</time>
      </trkpt>
      <trkpt lat="48.06515" lon="2.97267">
        <ele>112.61157226562</ele>
        <time>2012-06-05T09:30:48Z</time>
      </trkpt>
      <trkpt lat="48.06519" lon="2.97272">
        <ele>112.61157226562</ele>
        <time>2012-06-05T09:30:52Z</time>
      </trkpt>
      <trkpt lat="48.06526" lon="2.97286">
        <ele>113.09228515625</ele>
        <time>2012-06-05T09:31:00Z</time>
      </trkpt>
      <trkpt lat="48.06538" lon="2.97323">
        <ele>126.06994628906</ele>
        <time>2012-06-05T09:31:16Z</time>
      </trkpt>
      <trkpt lat="48.0654" lon="2.97326">
        <ele>126.55065917969</ele>
        <time>2012-06-05T09:31:28Z</time>
      </trkpt>
      <trkpt lat="48.06551" lon="2.97368">
        <ele>134.72192382812</ele>
        <time>2012-06-05T09:31:54Z</time>
      </trkpt>
      <trkpt lat="48.06559" lon="2.97386">
        <ele>136.16394042969</ele>
        <time>2012-06-05T09:32:07Z</time>
      </trkpt>
      <trkpt lat="48.0657" lon="2.97416">
        <ele>137.60583496094</ele>
        <time>2012-06-05T09:32:23Z</time>
      </trkpt>
      <trkpt lat="48.06575" lon="2.97429">
        <ele>137.60583496094</ele>
        <time>2012-06-05T09:32:30Z</time>
      </trkpt>
      <trkpt lat="48.06581" lon="2.97445">
        <ele>137.60583496094</ele>
        <time>2012-06-05T09:32:39Z</time>
      </trkpt>
      <trkpt lat="48.06588" lon="2.97468">
        <ele>136.64465332031</ele>
        <time>2012-06-05T09:32:52Z</time>
      </trkpt>
      <trkpt lat="48.06594" lon="2.97485">
        <ele>132.79931640625</ele>
        <time>2012-06-05T09:33:04Z</time>
      </trkpt>
      <trkpt lat="48.06601" lon="2.97506">
        <ele>131.35729980469</ele>
        <time>2012-06-05T09:33:15Z</time>
      </trkpt>
      <trkpt lat="48.06604" lon="2.97519">
        <ele>129.43469238281</ele>
        <time>2012-06-05T09:33:23Z</time>
      </trkpt>
      <trkpt lat="48.06615" lon="2.97542">
        <ele>127.51196289062</ele>
        <time>2012-06-05T09:33:36Z</time>
      </trkpt>
      <trkpt lat="48.06621" lon="2.97553">
        <ele>127.99255371094</ele>
        <time>2012-06-05T09:33:43Z</time>
      </trkpt>
      <trkpt lat="48.06632" lon="2.97572">
        <ele>131.837890625</ele>
        <time>2012-06-05T09:33:55Z</time>
      </trkpt>
      <trkpt lat="48.06633" lon="2.97574">
        <ele>131.837890625</ele>
        <time>2012-06-05T09:33:56Z</time>
      </trkpt>
      <trkpt lat="48.06643" lon="2.97588">
        <ele>136.64465332031</ele>
        <time>2012-06-05T09:34:07Z</time>
      </trkpt>
      <trkpt lat="48.06653" lon="2.97604">
        <ele>138.56726074219</ele>
        <time>2012-06-05T09:34:17Z</time>
      </trkpt>
      <trkpt lat="48.06655" lon="2.97608">
        <ele>138.56726074219</ele>
        <time>2012-06-05T09:34:19Z</time>
      </trkpt>
      <trkpt lat="48.06657" lon="2.97611">
        <ele>139.0478515625</ele>
        <time>2012-06-05T09:34:21Z</time>
      </trkpt>
      <trkpt lat="48.06664" lon="2.97621">
        <ele>139.0478515625</ele>
        <time>2012-06-05T09:34:28Z</time>
      </trkpt>
      <trkpt lat="48.06667" lon="2.9763">
        <ele>139.0478515625</ele>
        <time>2012-06-05T09:34:33Z</time>
      </trkpt>
      <trkpt lat="48.06677" lon="2.97654">
        <ele>142.41247558594</ele>
        <time>2012-06-05T09:34:46Z</time>
      </trkpt>
      <trkpt lat="48.06678" lon="2.97656">
        <ele>142.89306640625</ele>
        <time>2012-06-05T09:34:47Z</time>
      </trkpt>
      <trkpt lat="48.06681" lon="2.97671">
        <ele>143.37365722656</ele>
        <time>2012-06-05T09:34:56Z</time>
      </trkpt>
      <trkpt lat="48.06682" lon="2.97675">
        <ele>143.37365722656</ele>
        <time>2012-06-05T09:34:58Z</time>
      </trkpt>
      <trkpt lat="48.06687" lon="2.97698">
        <ele>144.33520507812</ele>
        <time>2012-06-05T09:35:10Z</time>
      </trkpt>
      <trkpt lat="48.06689" lon="2.97721">
        <ele>144.33520507812</ele>
        <time>2012-06-05T09:35:22Z</time>
      </trkpt>
      <trkpt lat="48.06689" lon="2.97728">
        <ele>144.81579589844</ele>
        <time>2012-06-05T09:35:26Z</time>
      </trkpt>
      <trkpt lat="48.06689" lon="2.97745">
        <ele>145.77709960938</ele>
        <time>2012-06-05T09:35:35Z</time>
      </trkpt>
      <trkpt lat="48.06689" lon="2.97757">
        <ele>146.73840332031</ele>
        <time>2012-06-05T09:35:41Z</time>
      </trkpt>
      <trkpt lat="48.06685" lon="2.97765">
        <ele>147.69970703125</ele>
        <time>2012-06-05T09:35:45Z</time>
      </trkpt>
      <trkpt lat="48.06679" lon="2.97771">
        <ele>144.33520507812</ele>
        <time>2012-06-05T09:35:50Z</time>
      </trkpt>
      <trkpt lat="48.06661" lon="2.97766">
        <ele>142.89306640625</ele>
        <time>2012-06-05T09:36:04Z</time>
      </trkpt>
      <trkpt lat="48.06658" lon="2.97766">
        <ele>142.41247558594</ele>
        <time>2012-06-05T09:36:07Z</time>
      </trkpt>
      <trkpt lat="48.06644" lon="2.97758">
        <ele>140.97045898438</ele>
        <time>2012-06-05T09:36:19Z</time>
      </trkpt>
      <trkpt lat="48.06637" lon="2.97753">
        <ele>141.45104980469</ele>
        <time>2012-06-05T09:36:25Z</time>
      </trkpt>
      <trkpt lat="48.06628" lon="2.97748">
        <ele>141.45104980469</ele>
        <time>2012-06-05T09:36:32Z</time>
      </trkpt>
      <trkpt lat="48.06621" lon="2.97746">
        <ele>141.93176269531</ele>
        <time>2012-06-05T09:36:37Z</time>
      </trkpt>
      <trkpt lat="48.06605" lon="2.97733">
        <ele>142.41247558594</ele>
        <time>2012-06-05T09:36:50Z</time>
      </trkpt>
      <trkpt lat="48.0659" lon="2.97725">
        <ele>141.93176269531</ele>
        <time>2012-06-05T09:37:02Z</time>
      </trkpt>
      <trkpt lat="48.06581" lon="2.97722">
        <ele>142.41247558594</ele>
        <time>2012-06-05T09:37:09Z</time>
      </trkpt>
      <trkpt lat="48.06567" lon="2.97712">
        <ele>141.45104980469</ele>
        <time>2012-06-05T09:37:20Z</time>
      </trkpt>
      <trkpt lat="48.06563" lon="2.97704">
        <ele>141.45104980469</ele>
        <time>2012-06-05T09:37:34Z</time>
      </trkpt>
      <trkpt lat="48.06563" lon="2.97704">
        <ele>141.45104980469</ele>
        <time>2012-06-05T09:37:36Z</time>
      </trkpt>
      <trkpt lat="48.06561" lon="2.97705">
        <ele>141.93176269531</ele>
        <time>2012-06-05T09:37:39Z</time>
      </trkpt>
      <trkpt lat="48.06555" lon="2.97704">
        <ele>142.89306640625</ele>
        <time>2012-06-05T09:37:43Z</time>
      </trkpt>
      <trkpt lat="48.0654" lon="2.97695">
        <ele>142.41247558594</ele>
        <time>2012-06-05T09:37:56Z</time>
      </trkpt>
      <trkpt lat="48.06532" lon="2.97691">
        <ele>142.41247558594</ele>
        <time>2012-06-05T09:38:04Z</time>
      </trkpt>
      <trkpt lat="48.0652" lon="2.97685">
        <ele>142.41247558594</ele>
        <time>2012-06-05T09:38:15Z</time>
      </trkpt>
      <trkpt lat="48.06511" lon="2.97679">
        <ele>141.45104980469</ele>
        <time>2012-06-05T09:38:22Z</time>
      </trkpt>
      <trkpt lat="48.06495" lon="2.97672">
        <ele>140.48986816406</ele>
        <time>2012-06-05T09:38:35Z</time>
      </trkpt>
      <trkpt lat="48.0648" lon="2.97667">
        <ele>142.41247558594</ele>
        <time>2012-06-05T09:38:46Z</time>
      </trkpt>
      <trkpt lat="48.0647" lon="2.97662">
        <ele>143.37365722656</ele>
        <time>2012-06-05T09:38:53Z</time>
      </trkpt>
      <trkpt lat="48.06458" lon="2.97657">
        <ele>143.37365722656</ele>
        <time>2012-06-05T09:39:03Z</time>
      </trkpt>
      <trkpt lat="48.06453" lon="2.97654">
        <ele>144.33520507812</ele>
        <time>2012-06-05T09:39:06Z</time>
      </trkpt>
      <trkpt lat="48.06448" lon="2.97652">
        <ele>142.89306640625</ele>
        <time>2012-06-05T09:39:18Z</time>
      </trkpt>
      <trkpt lat="48.06421" lon="2.97634">
        <ele>140.97045898438</ele>
        <time>2012-06-05T09:39:39Z</time>
      </trkpt>
      <trkpt lat="48.06413" lon="2.97635">
        <ele>139.52844238281</ele>
        <time>2012-06-05T09:39:44Z</time>
      </trkpt>
      <trkpt lat="48.06393" lon="2.9763">
        <ele>140.48986816406</ele>
        <time>2012-06-05T09:39:59Z</time>
      </trkpt>
      <trkpt lat="48.06388" lon="2.97631">
        <ele>140.00915527344</ele>
        <time>2012-06-05T09:40:16Z</time>
      </trkpt>
      <trkpt lat="48.0638" lon="2.97634">
        <ele>137.60583496094</ele>
        <time>2012-06-05T09:46:06Z</time>
      </trkpt>
      <trkpt lat="48.06378" lon="2.97639">
        <ele>137.60583496094</ele>
        <time>2012-06-05T09:47:35Z</time>
      </trkpt>
      <trkpt lat="48.06376" lon="2.97639">
        <ele>137.60583496094</ele>
        <time>2012-06-05T09:48:12Z</time>
      </trkpt>
      <trkpt lat="48.06371" lon="2.9764">
        <ele>137.12524414062</ele>
        <time>2012-06-05T09:48:17Z</time>
      </trkpt>
      <trkpt lat="48.0636" lon="2.97644">
        <ele>137.60583496094</ele>
        <time>2012-06-05T09:48:30Z</time>
      </trkpt>
      <trkpt lat="48.06348" lon="2.97646">
        <ele>138.08654785156</ele>
        <time>2012-06-05T09:48:40Z</time>
      </trkpt>
      <trkpt lat="48.06337" lon="2.97651">
        <ele>137.12524414062</ele>
        <time>2012-06-05T09:48:49Z</time>
      </trkpt>
      <trkpt lat="48.06323" lon="2.97656">
        <ele>135.20251464844</ele>
        <time>2012-06-05T09:48:59Z</time>
      </trkpt>
      <trkpt lat="48.06301" lon="2.97669">
        <ele>135.20251464844</ele>
        <time>2012-06-05T09:49:15Z</time>
      </trkpt>
      <trkpt lat="48.06298" lon="2.9767">
        <ele>135.68310546875</ele>
        <time>2012-06-05T09:49:17Z</time>
      </trkpt>
      <trkpt lat="48.06283" lon="2.97683">
        <ele>134.72192382812</ele>
        <time>2012-06-05T09:49:31Z</time>
      </trkpt>
      <trkpt lat="48.06275" lon="2.97692">
        <ele>135.68310546875</ele>
        <time>2012-06-05T09:49:46Z</time>
      </trkpt>
      <trkpt lat="48.06271" lon="2.97695">
        <ele>135.68310546875</ele>
        <time>2012-06-05T09:50:02Z</time>
      </trkpt>
      <trkpt lat="48.0626" lon="2.97705">
        <ele>136.64465332031</ele>
        <time>2012-06-05T09:50:11Z</time>
      </trkpt>
      <trkpt lat="48.06246" lon="2.97714">
        <ele>137.60583496094</ele>
        <time>2012-06-05T09:50:22Z</time>
      </trkpt>
      <trkpt lat="48.06241" lon="2.97716">
        <ele>137.60583496094</ele>
        <time>2012-06-05T09:50:39Z</time>
      </trkpt>
      <trkpt lat="48.06221" lon="2.97723">
        <ele>138.08654785156</ele>
        <time>2012-06-05T09:50:53Z</time>
      </trkpt>
      <trkpt lat="48.06214" lon="2.97725">
        <ele>138.08654785156</ele>
        <time>2012-06-05T09:51:05Z</time>
      </trkpt>
      <trkpt lat="48.06213" lon="2.97725">
        <ele>138.08654785156</ele>
        <time>2012-06-05T09:51:12Z</time>
      </trkpt>
      <trkpt lat="48.06198" lon="2.97724">
        <ele>136.64465332031</ele>
        <time>2012-06-05T09:51:25Z</time>
      </trkpt>
      <trkpt lat="48.06197" lon="2.97724">
        <ele>136.64465332031</ele>
        <time>2012-06-05T09:51:26Z</time>
      </trkpt>
      <trkpt lat="48.06195" lon="2.97724">
        <ele>136.16394042969</ele>
        <time>2012-06-05T09:51:28Z</time>
      </trkpt>
      <trkpt lat="48.06187" lon="2.97723">
        <ele>135.68310546875</ele>
        <time>2012-06-05T09:51:38Z</time>
      </trkpt>
      <trkpt lat="48.0618" lon="2.97725">
        <ele>134.72192382812</ele>
        <time>2012-06-05T09:51:43Z</time>
      </trkpt>
      <trkpt lat="48.06171" lon="2.97729">
        <ele>132.31860351562</ele>
        <time>2012-06-05T09:51:52Z</time>
      </trkpt>
      <trkpt lat="48.06164" lon="2.97738">
        <ele>129.43469238281</ele>
        <time>2012-06-05T09:52:01Z</time>
      </trkpt>
      <trkpt lat="48.06162" lon="2.97742">
        <ele>128.47338867188</ele>
        <time>2012-06-05T09:52:03Z</time>
      </trkpt>
      <trkpt lat="48.06155" lon="2.97748">
        <ele>127.03137207031</ele>
        <time>2012-06-05T09:52:09Z</time>
      </trkpt>
      <trkpt lat="48.06151" lon="2.97751">
        <ele>125.58935546875</ele>
        <time>2012-06-05T09:52:12Z</time>
      </trkpt>
      <trkpt lat="48.06142" lon="2.97759">
        <ele>123.18615722656</ele>
        <time>2012-06-05T09:52:22Z</time>
      </trkpt>
      <trkpt lat="48.06136" lon="2.97765">
        <ele>122.22473144531</ele>
        <time>2012-06-05T09:52:28Z</time>
      </trkpt>
      <trkpt lat="48.06128" lon="2.97773">
        <ele>121.26354980469</ele>
        <time>2012-06-05T09:52:35Z</time>
      </trkpt>
      <trkpt lat="48.06115" lon="2.97784">
        <ele>119.82141113281</ele>
        <time>2012-06-05T09:52:45Z</time>
      </trkpt>
      <trkpt lat="48.06111" lon="2.97789">
        <ele>118.86010742188</ele>
        <time>2012-06-05T09:52:50Z</time>
      </trkpt>
      <trkpt lat="48.06098" lon="2.97804">
        <ele>121.744140625</ele>
        <time>2012-06-05T09:53:03Z</time>
      </trkpt>
      <trkpt lat="48.06097" lon="2.97805">
        <ele>121.744140625</ele>
        <time>2012-06-05T09:53:04Z</time>
      </trkpt>
      <trkpt lat="48.06085" lon="2.97813">
        <ele>126.06994628906</ele>
        <time>2012-06-05T09:53:12Z</time>
      </trkpt>
      <trkpt lat="48.06062" lon="2.97817">
        <ele>133.27990722656</ele>
        <time>2012-06-05T09:53:26Z</time>
      </trkpt>
      <trkpt lat="48.0604" lon="2.97825">
        <ele>138.08654785156</ele>
        <time>2012-06-05T09:53:41Z</time>
      </trkpt>
      <trkpt lat="48.0602" lon="2.97831">
        <ele>140.97045898438</ele>
        <time>2012-06-05T09:53:54Z</time>
      </trkpt>
      <trkpt lat="48.06019" lon="2.97831">
        <ele>141.45104980469</ele>
        <time>2012-06-05T09:53:55Z</time>
      </trkpt>
      <trkpt lat="48.06001" lon="2.97833">
        <ele>142.89306640625</ele>
        <time>2012-06-05T09:54:08Z</time>
      </trkpt>
      <trkpt lat="48.05983" lon="2.97835">
        <ele>144.33520507812</ele>
        <time>2012-06-05T09:54:21Z</time>
      </trkpt>
      <trkpt lat="48.05977" lon="2.97835">
        <ele>144.81579589844</ele>
        <time>2012-06-05T09:54:25Z</time>
      </trkpt>
      <trkpt lat="48.05972" lon="2.97834">
        <ele>145.29638671875</ele>
        <time>2012-06-05T09:54:29Z</time>
      </trkpt>
      <trkpt lat="48.05965" lon="2.97833">
        <ele>145.29638671875</ele>
        <time>2012-06-05T09:54:34Z</time>
      </trkpt>
      <trkpt lat="48.05959" lon="2.97831">
        <ele>145.29638671875</ele>
        <time>2012-06-05T09:54:38Z</time>
      </trkpt>
      <trkpt lat="48.05943" lon="2.97831">
        <ele>147.21899414062</ele>
        <time>2012-06-05T09:54:49Z</time>
      </trkpt>
      <trkpt lat="48.0593" lon="2.97832">
        <ele>147.21899414062</ele>
        <time>2012-06-05T09:54:59Z</time>
      </trkpt>
      <trkpt lat="48.05921" lon="2.97835">
        <ele>147.21899414062</ele>
        <time>2012-06-05T09:55:05Z</time>
      </trkpt>
      <trkpt lat="48.05909" lon="2.97837">
        <ele>148.18041992188</ele>
        <time>2012-06-05T09:55:13Z</time>
      </trkpt>
      <trkpt lat="48.05899" lon="2.97835">
        <ele>148.66101074219</ele>
        <time>2012-06-05T09:55:20Z</time>
      </trkpt>
      <trkpt lat="48.05888" lon="2.97835">
        <ele>149.1416015625</ele>
        <time>2012-06-05T09:55:28Z</time>
      </trkpt>
      <trkpt lat="48.05873" lon="2.97835">
        <ele>146.73840332031</ele>
        <time>2012-06-05T09:55:41Z</time>
      </trkpt>
      <trkpt lat="48.05855" lon="2.97831">
        <ele>146.2578125</ele>
        <time>2012-06-05T09:55:54Z</time>
      </trkpt>
      <trkpt lat="48.05848" lon="2.9783">
        <ele>146.73840332031</ele>
        <time>2012-06-05T09:55:59Z</time>
      </trkpt>
      <trkpt lat="48.05844" lon="2.97831">
        <ele>146.2578125</ele>
        <time>2012-06-05T09:56:13Z</time>
      </trkpt>
      <trkpt lat="48.05839" lon="2.9783">
        <ele>146.2578125</ele>
        <time>2012-06-05T09:56:34Z</time>
      </trkpt>
      <trkpt lat="48.05804" lon="2.97809">
        <ele>145.29638671875</ele>
        <time>2012-06-05T09:57:00Z</time>
      </trkpt>
      <trkpt lat="48.05801" lon="2.97807">
        <ele>145.29638671875</ele>
        <time>2012-06-05T09:57:02Z</time>
      </trkpt>
      <trkpt lat="48.05783" lon="2.97795">
        <ele>144.33520507812</ele>
        <time>2012-06-05T09:57:12Z</time>
      </trkpt>
      <trkpt lat="48.05777" lon="2.97793">
        <ele>143.37365722656</ele>
        <time>2012-06-05T09:57:16Z</time>
      </trkpt>
      <trkpt lat="48.05768" lon="2.97792">
        <ele>142.89306640625</ele>
        <time>2012-06-05T09:57:22Z</time>
      </trkpt>
      <trkpt lat="48.05763" lon="2.97791">
        <ele>143.37365722656</ele>
        <time>2012-06-05T09:57:26Z</time>
      </trkpt>
      <trkpt lat="48.05741" lon="2.97787">
        <ele>142.41247558594</ele>
        <time>2012-06-05T09:57:41Z</time>
      </trkpt>
      <trkpt lat="48.05738" lon="2.97785">
        <ele>142.41247558594</ele>
        <time>2012-06-05T09:57:43Z</time>
      </trkpt>
      <trkpt lat="48.05718" lon="2.9778">
        <ele>143.37365722656</ele>
        <time>2012-06-05T09:57:57Z</time>
      </trkpt>
      <trkpt lat="48.05696" lon="2.9777">
        <ele>143.85437011719</ele>
        <time>2012-06-05T09:58:12Z</time>
      </trkpt>
      <trkpt lat="48.05684" lon="2.97767">
        <ele>144.81579589844</ele>
        <time>2012-06-05T09:58:26Z</time>
      </trkpt>
      <trkpt lat="48.05679" lon="2.97764">
        <ele>144.81579589844</ele>
        <time>2012-06-05T09:58:32Z</time>
      </trkpt>
      <trkpt lat="48.05671" lon="2.97759">
        <ele>144.81579589844</ele>
        <time>2012-06-05T09:58:38Z</time>
      </trkpt>
      <trkpt lat="48.05653" lon="2.97754">
        <ele>145.29638671875</ele>
        <time>2012-06-05T09:58:52Z</time>
      </trkpt>
      <trkpt lat="48.05636" lon="2.97747">
        <ele>146.73840332031</ele>
        <time>2012-06-05T09:59:04Z</time>
      </trkpt>
      <trkpt lat="48.05621" lon="2.97737">
        <ele>146.2578125</ele>
        <time>2012-06-05T09:59:16Z</time>
      </trkpt>
      <trkpt lat="48.05608" lon="2.97732">
        <ele>145.77709960938</ele>
        <time>2012-06-05T09:59:25Z</time>
      </trkpt>
      <trkpt lat="48.0559" lon="2.97727">
        <ele>145.77709960938</ele>
        <time>2012-06-05T09:59:38Z</time>
      </trkpt>
      <trkpt lat="48.05568" lon="2.97724">
        <ele>144.33520507812</ele>
        <time>2012-06-05T09:59:52Z</time>
      </trkpt>
      <trkpt lat="48.05545" lon="2.97724">
        <ele>143.85437011719</ele>
        <time>2012-06-05T10:00:08Z</time>
      </trkpt>
      <trkpt lat="48.05526" lon="2.9772">
        <ele>143.37365722656</ele>
        <time>2012-06-05T10:00:20Z</time>
      </trkpt>
      <trkpt lat="48.05506" lon="2.97713">
        <ele>141.93176269531</ele>
        <time>2012-06-05T10:00:35Z</time>
      </trkpt>
      <trkpt lat="48.05501" lon="2.97709">
        <ele>141.93176269531</ele>
        <time>2012-06-05T10:00:39Z</time>
      </trkpt>
      <trkpt lat="48.05481" lon="2.97697">
        <ele>140.00915527344</ele>
        <time>2012-06-05T10:00:54Z</time>
      </trkpt>
      <trkpt lat="48.0547" lon="2.97689">
        <ele>137.12524414062</ele>
        <time>2012-06-05T10:01:05Z</time>
      </trkpt>
      <trkpt lat="48.05466" lon="2.97685">
        <ele>135.68310546875</ele>
        <time>2012-06-05T10:01:10Z</time>
      </trkpt>
      <trkpt lat="48.0546" lon="2.97684">
        <ele>132.31860351562</ele>
        <time>2012-06-05T10:01:25Z</time>
      </trkpt>
      <trkpt lat="48.05439" lon="2.97678">
        <ele>126.55065917969</ele>
        <time>2012-06-05T10:01:49Z</time>
      </trkpt>
      <trkpt lat="48.05412" lon="2.97671">
        <ele>122.22473144531</ele>
        <time>2012-06-05T10:02:04Z</time>
      </trkpt>
      <trkpt lat="48.05391" lon="2.97662">
        <ele>118.37939453125</ele>
        <time>2012-06-05T10:02:21Z</time>
      </trkpt>
      <trkpt lat="48.05387" lon="2.9766">
        <ele>117.41821289062</ele>
        <time>2012-06-05T10:02:24Z</time>
      </trkpt>
      <trkpt lat="48.05383" lon="2.97658">
        <ele>116.9375</ele>
        <time>2012-06-05T10:02:27Z</time>
      </trkpt>
      <trkpt lat="48.05368" lon="2.97652">
        <ele>114.05358886719</ele>
        <time>2012-06-05T10:02:39Z</time>
      </trkpt>
      <trkpt lat="48.05351" lon="2.97641">
        <ele>112.13098144531</ele>
        <time>2012-06-05T10:02:50Z</time>
      </trkpt>
      <trkpt lat="48.05332" lon="2.97627">
        <ele>112.13098144531</ele>
        <time>2012-06-05T10:03:05Z</time>
      </trkpt>
      <trkpt lat="48.05324" lon="2.97621">
        <ele>112.13098144531</ele>
        <time>2012-06-05T10:03:12Z</time>
      </trkpt>
      <trkpt lat="48.0531" lon="2.97613">
        <ele>112.61157226562</ele>
        <time>2012-06-05T10:03:23Z</time>
      </trkpt>
      <trkpt lat="48.05297" lon="2.97605">
        <ele>113.57299804688</ele>
        <time>2012-06-05T10:03:32Z</time>
      </trkpt>
      <trkpt lat="48.05288" lon="2.976">
        <ele>114.05358886719</ele>
        <time>2012-06-05T10:03:37Z</time>
      </trkpt>
      <trkpt lat="48.05272" lon="2.97593">
        <ele>114.5341796875</ele>
        <time>2012-06-05T10:03:48Z</time>
      </trkpt>
      <trkpt lat="48.0526" lon="2.97589">
        <ele>115.01489257812</ele>
        <time>2012-06-05T10:04:01Z</time>
      </trkpt>
      <trkpt lat="48.05236" lon="2.97582">
        <ele>119.3408203125</ele>
        <time>2012-06-05T10:04:27Z</time>
      </trkpt>
      <trkpt lat="48.05216" lon="2.97576">
        <ele>120.78283691406</ele>
        <time>2012-06-05T10:04:52Z</time>
      </trkpt>
      <trkpt lat="48.05205" lon="2.97572">
        <ele>121.26354980469</ele>
        <time>2012-06-05T10:05:03Z</time>
      </trkpt>
      <trkpt lat="48.05192" lon="2.97561">
        <ele>121.26354980469</ele>
        <time>2012-06-05T10:05:13Z</time>
      </trkpt>
      <trkpt lat="48.05186" lon="2.97553">
        <ele>121.26354980469</ele>
        <time>2012-06-05T10:05:18Z</time>
      </trkpt>
      <trkpt lat="48.05174" lon="2.97541">
        <ele>115.49560546875</ele>
        <time>2012-06-05T10:05:36Z</time>
      </trkpt>
      <trkpt lat="48.05165" lon="2.97531">
        <ele>111.16955566406</ele>
        <time>2012-06-05T10:05:47Z</time>
      </trkpt>
      <trkpt lat="48.05158" lon="2.97525">
        <ele>108.28564453125</ele>
        <time>2012-06-05T10:05:54Z</time>
      </trkpt>
      <trkpt lat="48.05149" lon="2.97518">
        <ele>105.40173339844</ele>
        <time>2012-06-05T10:06:04Z</time>
      </trkpt>
      <trkpt lat="48.05146" lon="2.97515">
        <ele>104.92102050781</ele>
        <time>2012-06-05T10:06:07Z</time>
      </trkpt>
      <trkpt lat="48.05139" lon="2.97505">
        <ele>104.4404296875</ele>
        <time>2012-06-05T10:06:14Z</time>
      </trkpt>
      <trkpt lat="48.05132" lon="2.97497">
        <ele>104.4404296875</ele>
        <time>2012-06-05T10:06:20Z</time>
      </trkpt>
      <trkpt lat="48.0512" lon="2.97484">
        <ele>107.32434082031</ele>
        <time>2012-06-05T10:06:31Z</time>
      </trkpt>
      <trkpt lat="48.05116" lon="2.97482">
        <ele>109.24694824219</ele>
        <time>2012-06-05T10:06:34Z</time>
      </trkpt>
      <trkpt lat="48.05114" lon="2.97483">
        <ele>110.20825195312</ele>
        <time>2012-06-05T10:06:36Z</time>
      </trkpt>
      <trkpt lat="48.05104" lon="2.97476">
        <ele>115.01489257812</ele>
        <time>2012-06-05T10:06:44Z</time>
      </trkpt>
      <trkpt lat="48.05099" lon="2.97475">
        <ele>116.45678710938</ele>
        <time>2012-06-05T10:06:48Z</time>
      </trkpt>
      <trkpt lat="48.05091" lon="2.97475">
        <ele>117.89880371094</ele>
        <time>2012-06-05T10:06:55Z</time>
      </trkpt>
      <trkpt lat="48.05088" lon="2.97475">
        <ele>118.37939453125</ele>
        <time>2012-06-05T10:06:57Z</time>
      </trkpt>
      <trkpt lat="48.05079" lon="2.97477">
        <ele>119.82141113281</ele>
        <time>2012-06-05T10:07:06Z</time>
      </trkpt>
      <trkpt lat="48.05068" lon="2.97474">
        <ele>119.3408203125</ele>
        <time>2012-06-05T10:07:14Z</time>
      </trkpt>
      <trkpt lat="48.05048" lon="2.97475">
        <ele>118.86010742188</ele>
        <time>2012-06-05T10:07:30Z</time>
      </trkpt>
      <trkpt lat="48.05028" lon="2.97477">
        <ele>120.30212402344</ele>
        <time>2012-06-05T10:07:45Z</time>
      </trkpt>
      <trkpt lat="48.05018" lon="2.9748">
        <ele>121.744140625</ele>
        <time>2012-06-05T10:07:55Z</time>
      </trkpt>
      <trkpt lat="48.05017" lon="2.9748">
        <ele>121.744140625</ele>
        <time>2012-06-05T10:07:56Z</time>
      </trkpt>
      <trkpt lat="48.05008" lon="2.97477">
        <ele>122.70544433594</ele>
        <time>2012-06-05T10:08:04Z</time>
      </trkpt>
      <trkpt lat="48.05001" lon="2.97477">
        <ele>123.18615722656</ele>
        <time>2012-06-05T10:08:08Z</time>
      </trkpt>
      <trkpt lat="48.04992" lon="2.97477">
        <ele>124.14733886719</ele>
        <time>2012-06-05T10:08:14Z</time>
      </trkpt>
      <trkpt lat="48.04982" lon="2.97476">
        <ele>126.06994628906</ele>
        <time>2012-06-05T10:08:21Z</time>
      </trkpt>
      <trkpt lat="48.04966" lon="2.97476">
        <ele>127.51196289062</ele>
        <time>2012-06-05T10:08:34Z</time>
      </trkpt>
      <trkpt lat="48.04966" lon="2.97476">
        <ele>127.51196289062</ele>
        <time>2012-06-05T10:09:23Z</time>
      </trkpt>
      <trkpt lat="48.04938" lon="2.97477">
        <ele>136.16394042969</ele>
        <time>2012-06-05T10:09:49Z</time>
      </trkpt>
      <trkpt lat="48.04931" lon="2.97476">
        <ele>137.60583496094</ele>
        <time>2012-06-05T10:09:58Z</time>
      </trkpt>
      <trkpt lat="48.04924" lon="2.97464">
        <ele>138.56726074219</ele>
        <time>2012-06-05T10:10:06Z</time>
      </trkpt>
      <trkpt lat="48.04922" lon="2.97457">
        <ele>138.08654785156</ele>
        <time>2012-06-05T10:10:11Z</time>
      </trkpt>
      <trkpt lat="48.04914" lon="2.97445">
        <ele>137.60583496094</ele>
        <time>2012-06-05T10:10:22Z</time>
      </trkpt>
      <trkpt lat="48.04914" lon="2.97445">
        <ele>137.60583496094</ele>
        <time>2012-06-05T10:10:31Z</time>
      </trkpt>
      <trkpt lat="48.04922" lon="2.97407">
        <ele>138.08654785156</ele>
        <time>2012-06-05T10:10:57Z</time>
      </trkpt>
      <trkpt lat="48.04928" lon="2.97376">
        <ele>136.16394042969</ele>
        <time>2012-06-05T10:11:13Z</time>
      </trkpt>
      <trkpt lat="48.04933" lon="2.97353">
        <ele>135.20251464844</ele>
        <time>2012-06-05T10:11:26Z</time>
      </trkpt>
      <trkpt lat="48.04939" lon="2.97327">
        <ele>133.76049804688</ele>
        <time>2012-06-05T10:11:40Z</time>
      </trkpt>
      <trkpt lat="48.04944" lon="2.97297">
        <ele>133.76049804688</ele>
        <time>2012-06-05T10:11:55Z</time>
      </trkpt>
      <trkpt lat="48.0495" lon="2.9727">
        <ele>134.2412109375</ele>
        <time>2012-06-05T10:12:09Z</time>
      </trkpt>
      <trkpt lat="48.04956" lon="2.9725">
        <ele>133.76049804688</ele>
        <time>2012-06-05T10:12:22Z</time>
      </trkpt>
      <trkpt lat="48.04958" lon="2.97242">
        <ele>133.27990722656</ele>
        <time>2012-06-05T10:12:27Z</time>
      </trkpt>
      <trkpt lat="48.0496" lon="2.97231">
        <ele>132.79931640625</ele>
        <time>2012-06-05T10:12:32Z</time>
      </trkpt>
      <trkpt lat="48.04962" lon="2.97225">
        <ele>133.27990722656</ele>
        <time>2012-06-05T10:12:36Z</time>
      </trkpt>
      <trkpt lat="48.04965" lon="2.97217">
        <ele>132.79931640625</ele>
        <time>2012-06-05T10:12:41Z</time>
      </trkpt>
      <trkpt lat="48.04968" lon="2.97216">
        <ele>133.27990722656</ele>
        <time>2012-06-05T10:12:52Z</time>
      </trkpt>
      <trkpt lat="48.04968" lon="2.97215">
        <ele>133.27990722656</ele>
        <time>2012-06-05T10:13:46Z</time>
      </trkpt>
      <trkpt lat="48.04969" lon="2.97213">
        <ele>133.27990722656</ele>
        <time>2012-06-05T10:13:48Z</time>
      </trkpt>
      <trkpt lat="48.04979" lon="2.97215">
        <ele>134.72192382812</ele>
        <time>2012-06-05T10:13:58Z</time>
      </trkpt>
      <trkpt lat="48.04981" lon="2.97216">
        <ele>135.20251464844</ele>
        <time>2012-06-05T10:14:00Z</time>
      </trkpt>
      <trkpt lat="48.04984" lon="2.97215">
        <ele>135.68310546875</ele>
        <time>2012-06-05T10:14:03Z</time>
      </trkpt>
      <trkpt lat="48.04989" lon="2.97226">
        <ele>137.12524414062</ele>
        <time>2012-06-05T10:14:13Z</time>
      </trkpt>
      <trkpt lat="48.04991" lon="2.97216">
        <ele>137.60583496094</ele>
        <time>2012-06-05T10:14:19Z</time>
      </trkpt>
      <trkpt lat="48.04992" lon="2.97211">
        <ele>138.08654785156</ele>
        <time>2012-06-05T10:14:24Z</time>
      </trkpt>
      <trkpt lat="48.05" lon="2.97211">
        <ele>137.12524414062</ele>
        <time>2012-06-05T10:14:31Z</time>
      </trkpt>
      <trkpt lat="48.05007" lon="2.97218">
        <ele>138.56726074219</ele>
        <time>2012-06-05T10:14:45Z</time>
      </trkpt>
      <trkpt lat="48.05006" lon="2.97232">
        <ele>138.08654785156</ele>
        <time>2012-06-05T10:15:14Z</time>
      </trkpt>
      <trkpt lat="48.05006" lon="2.97219">
        <ele>136.16394042969</ele>
        <time>2012-06-05T10:15:27Z</time>
      </trkpt>
      <trkpt lat="48.05006" lon="2.97217">
        <ele>136.16394042969</ele>
        <time>2012-06-05T10:15:34Z</time>
      </trkpt>
      <trkpt lat="48.05005" lon="2.97215">
        <ele>135.20251464844</ele>
        <time>2012-06-05T10:15:36Z</time>
      </trkpt>
      <trkpt lat="48.05002" lon="2.97217">
        <ele>133.76049804688</ele>
        <time>2012-06-05T10:15:39Z</time>
      </trkpt>
      <trkpt lat="48.05" lon="2.97215">
        <ele>132.79931640625</ele>
        <time>2012-06-05T10:15:48Z</time>
      </trkpt>
      <trkpt lat="48.04987" lon="2.97207">
        <ele>136.64465332031</ele>
        <time>2012-06-05T10:16:00Z</time>
      </trkpt>
      <trkpt lat="48.04974" lon="2.97208">
        <ele>137.12524414062</ele>
        <time>2012-06-05T10:16:11Z</time>
      </trkpt>
      <trkpt lat="48.04973" lon="2.97208">
        <ele>137.12524414062</ele>
        <time>2012-06-05T10:16:12Z</time>
      </trkpt>
      <trkpt lat="48.04975" lon="2.9719">
        <ele>136.64465332031</ele>
        <time>2012-06-05T10:16:24Z</time>
      </trkpt>
      <trkpt lat="48.04982" lon="2.97171">
        <ele>134.2412109375</ele>
        <time>2012-06-05T10:16:37Z</time>
      </trkpt>
      <trkpt lat="48.04988" lon="2.9716">
        <ele>134.2412109375</ele>
        <time>2012-06-05T10:16:53Z</time>
      </trkpt>
      <trkpt lat="48.05" lon="2.97133">
        <ele>129.91528320312</ele>
        <time>2012-06-05T10:17:16Z</time>
      </trkpt>
      <trkpt lat="48.05007" lon="2.97105">
        <ele>124.14733886719</ele>
        <time>2012-06-05T10:17:29Z</time>
      </trkpt>
      <trkpt lat="48.0501" lon="2.97097">
        <ele>125.10876464844</ele>
        <time>2012-06-05T10:17:33Z</time>
      </trkpt>
      <trkpt lat="48.05012" lon="2.97083">
        <ele>124.14733886719</ele>
        <time>2012-06-05T10:17:47Z</time>
      </trkpt>
      <trkpt lat="48.05018" lon="2.97066">
        <ele>124.62805175781</ele>
        <time>2012-06-05T10:18:00Z</time>
      </trkpt>
      <trkpt lat="48.05025" lon="2.97038">
        <ele>123.66674804688</ele>
        <time>2012-06-05T10:18:14Z</time>
      </trkpt>
      <trkpt lat="48.05031" lon="2.9701">
        <ele>123.66674804688</ele>
        <time>2012-06-05T10:18:29Z</time>
      </trkpt>
      <trkpt lat="48.05035" lon="2.97">
        <ele>124.14733886719</ele>
        <time>2012-06-05T10:18:44Z</time>
      </trkpt>
      <trkpt lat="48.05039" lon="2.96983">
        <ele>122.70544433594</ele>
        <time>2012-06-05T10:18:55Z</time>
      </trkpt>
      <trkpt lat="48.05046" lon="2.9696">
        <ele>121.744140625</ele>
        <time>2012-06-05T10:19:08Z</time>
      </trkpt>
      <trkpt lat="48.05054" lon="2.96943">
        <ele>121.26354980469</ele>
        <time>2012-06-05T10:19:22Z</time>
      </trkpt>
      <trkpt lat="48.05054" lon="2.96941">
        <ele>121.26354980469</ele>
        <time>2012-06-05T10:20:08Z</time>
      </trkpt>
      <trkpt lat="48.05055" lon="2.96931">
        <ele>121.744140625</ele>
        <time>2012-06-05T10:20:13Z</time>
      </trkpt>
      <trkpt lat="48.05057" lon="2.9692">
        <ele>121.26354980469</ele>
        <time>2012-06-05T10:20:19Z</time>
      </trkpt>
      <trkpt lat="48.05063" lon="2.96889">
        <ele>120.30212402344</ele>
        <time>2012-06-05T10:20:35Z</time>
      </trkpt>
      <trkpt lat="48.05067" lon="2.96862">
        <ele>118.37939453125</ele>
        <time>2012-06-05T10:20:49Z</time>
      </trkpt>
      <trkpt lat="48.05071" lon="2.96838">
        <ele>118.86010742188</ele>
        <time>2012-06-05T10:21:00Z</time>
      </trkpt>
      <trkpt lat="48.05071" lon="2.96824">
        <ele>118.37939453125</ele>
        <time>2012-06-05T10:21:16Z</time>
      </trkpt>
      <trkpt lat="48.05073" lon="2.96798">
        <ele>120.30212402344</ele>
        <time>2012-06-05T10:21:30Z</time>
      </trkpt>
      <trkpt lat="48.05075" lon="2.96769">
        <ele>121.26354980469</ele>
        <time>2012-06-05T10:21:44Z</time>
      </trkpt>
      <trkpt lat="48.05075" lon="2.96753">
        <ele>120.78283691406</ele>
        <time>2012-06-05T10:21:52Z</time>
      </trkpt>
      <trkpt lat="48.05076" lon="2.96718">
        <ele>122.22473144531</ele>
        <time>2012-06-05T10:22:07Z</time>
      </trkpt>
      <trkpt lat="48.05076" lon="2.9671">
        <ele>122.22473144531</ele>
        <time>2012-06-05T10:22:11Z</time>
      </trkpt>
      <trkpt lat="48.05079" lon="2.96685">
        <ele>122.70544433594</ele>
        <time>2012-06-05T10:22:24Z</time>
      </trkpt>
      <trkpt lat="48.05079" lon="2.9665">
        <ele>123.66674804688</ele>
        <time>2012-06-05T10:22:40Z</time>
      </trkpt>
      <trkpt lat="48.0508" lon="2.96645">
        <ele>123.66674804688</ele>
        <time>2012-06-05T10:22:42Z</time>
      </trkpt>
      <trkpt lat="48.05081" lon="2.96639">
        <ele>123.66674804688</ele>
        <time>2012-06-05T10:22:45Z</time>
      </trkpt>
      <trkpt lat="48.05083" lon="2.96608">
        <ele>125.58935546875</ele>
        <time>2012-06-05T10:23:00Z</time>
      </trkpt>
      <trkpt lat="48.05083" lon="2.96597">
        <ele>125.58935546875</ele>
        <time>2012-06-05T10:23:05Z</time>
      </trkpt>
      <trkpt lat="48.05084" lon="2.9659">
        <ele>125.58935546875</ele>
        <time>2012-06-05T10:23:08Z</time>
      </trkpt>
      <trkpt lat="48.05084" lon="2.96581">
        <ele>124.14733886719</ele>
        <time>2012-06-05T10:23:22Z</time>
      </trkpt>
      <trkpt lat="48.05084" lon="2.9657">
        <ele>123.66674804688</ele>
        <time>2012-06-05T10:23:30Z</time>
      </trkpt>
      <trkpt lat="48.05082" lon="2.96539">
        <ele>123.66674804688</ele>
        <time>2012-06-05T10:23:46Z</time>
      </trkpt>
      <trkpt lat="48.05083" lon="2.96524">
        <ele>122.22473144531</ele>
        <time>2012-06-05T10:23:53Z</time>
      </trkpt>
      <trkpt lat="48.05085" lon="2.96504">
        <ele>121.26354980469</ele>
        <time>2012-06-05T10:24:02Z</time>
      </trkpt>
      <trkpt lat="48.05085" lon="2.96499">
        <ele>120.30212402344</ele>
        <time>2012-06-05T10:24:05Z</time>
      </trkpt>
      <trkpt lat="48.05085" lon="2.96467">
        <ele>121.26354980469</ele>
        <time>2012-06-05T10:24:19Z</time>
      </trkpt>
      <trkpt lat="48.05085" lon="2.96465">
        <ele>121.26354980469</ele>
        <time>2012-06-05T10:24:20Z</time>
      </trkpt>
      <trkpt lat="48.05088" lon="2.96453">
        <ele>120.78283691406</ele>
        <time>2012-06-05T10:24:26Z</time>
      </trkpt>
      <trkpt lat="48.05088" lon="2.96424">
        <ele>118.86010742188</ele>
        <time>2012-06-05T10:24:42Z</time>
      </trkpt>
      <trkpt lat="48.05088" lon="2.96413">
        <ele>119.3408203125</ele>
        <time>2012-06-05T10:24:51Z</time>
      </trkpt>
      <trkpt lat="48.0509" lon="2.96406">
        <ele>119.3408203125</ele>
        <time>2012-06-05T10:24:55Z</time>
      </trkpt>
      <trkpt lat="48.05093" lon="2.96391">
        <ele>118.86010742188</ele>
        <time>2012-06-05T10:25:02Z</time>
      </trkpt>
      <trkpt lat="48.05092" lon="2.96361">
        <ele>119.3408203125</ele>
        <time>2012-06-05T10:25:16Z</time>
      </trkpt>
      <trkpt lat="48.05091" lon="2.96331">
        <ele>119.82141113281</ele>
        <time>2012-06-05T10:25:31Z</time>
      </trkpt>
      <trkpt lat="48.05091" lon="2.96315">
        <ele>118.86010742188</ele>
        <time>2012-06-05T10:25:39Z</time>
      </trkpt>
      <trkpt lat="48.05088" lon="2.96292">
        <ele>120.30212402344</ele>
        <time>2012-06-05T10:25:50Z</time>
      </trkpt>
      <trkpt lat="48.05088" lon="2.96285">
        <ele>119.82141113281</ele>
        <time>2012-06-05T10:25:53Z</time>
      </trkpt>
      <trkpt lat="48.05094" lon="2.96251">
        <ele>120.78283691406</ele>
        <time>2012-06-05T10:26:10Z</time>
      </trkpt>
      <trkpt lat="48.05105" lon="2.96231">
        <ele>122.70544433594</ele>
        <time>2012-06-05T10:26:22Z</time>
      </trkpt>
      <trkpt lat="48.05119" lon="2.96209">
        <ele>121.26354980469</ele>
        <time>2012-06-05T10:26:36Z</time>
      </trkpt>
      <trkpt lat="48.05132" lon="2.96192">
        <ele>119.82141113281</ele>
        <time>2012-06-05T10:26:49Z</time>
      </trkpt>
      <trkpt lat="48.05146" lon="2.96171">
        <ele>119.3408203125</ele>
        <time>2012-06-05T10:27:03Z</time>
      </trkpt>
      <trkpt lat="48.05164" lon="2.96147">
        <ele>119.82141113281</ele>
        <time>2012-06-05T10:27:19Z</time>
      </trkpt>
      <trkpt lat="48.05179" lon="2.96127">
        <ele>121.26354980469</ele>
        <time>2012-06-05T10:27:32Z</time>
      </trkpt>
      <trkpt lat="48.05185" lon="2.96115">
        <ele>119.3408203125</ele>
        <time>2012-06-05T10:27:42Z</time>
      </trkpt>
      <trkpt lat="48.05196" lon="2.96098">
        <ele>120.30212402344</ele>
        <time>2012-06-05T10:27:52Z</time>
      </trkpt>
      <trkpt lat="48.05211" lon="2.96079">
        <ele>120.30212402344</ele>
        <time>2012-06-05T10:28:06Z</time>
      </trkpt>
      <trkpt lat="48.05223" lon="2.9606">
        <ele>120.30212402344</ele>
        <time>2012-06-05T10:28:19Z</time>
      </trkpt>
      <trkpt lat="48.05236" lon="2.96044">
        <ele>119.82141113281</ele>
        <time>2012-06-05T10:28:32Z</time>
      </trkpt>
      <trkpt lat="48.05249" lon="2.96023">
        <ele>120.30212402344</ele>
        <time>2012-06-05T10:28:45Z</time>
      </trkpt>
      <trkpt lat="48.05255" lon="2.96017">
        <ele>120.78283691406</ele>
        <time>2012-06-05T10:28:50Z</time>
      </trkpt>
      <trkpt lat="48.05267" lon="2.95993">
        <ele>122.22473144531</ele>
        <time>2012-06-05T10:29:03Z</time>
      </trkpt>
      <trkpt lat="48.05275" lon="2.95978">
        <ele>124.14733886719</ele>
        <time>2012-06-05T10:29:13Z</time>
      </trkpt>
      <trkpt lat="48.05274" lon="2.95969">
        <ele>123.18615722656</ele>
        <time>2012-06-05T10:29:17Z</time>
      </trkpt>
      <trkpt lat="48.0527" lon="2.95957">
        <ele>121.744140625</ele>
        <time>2012-06-05T10:29:29Z</time>
      </trkpt>
      <trkpt lat="48.05271" lon="2.95958">
        <ele>121.26354980469</ele>
        <time>2012-06-05T10:29:39Z</time>
      </trkpt>
      <trkpt lat="48.05279" lon="2.95967">
        <ele>120.30212402344</ele>
        <time>2012-06-05T10:29:47Z</time>
      </trkpt>
      <trkpt lat="48.0529" lon="2.95967">
        <ele>118.37939453125</ele>
        <time>2012-06-05T10:29:58Z</time>
      </trkpt>
      <trkpt lat="48.05301" lon="2.95963">
        <ele>116.45678710938</ele>
        <time>2012-06-05T10:30:07Z</time>
      </trkpt>
      <trkpt lat="48.05303" lon="2.95952">
        <ele>113.57299804688</ele>
        <time>2012-06-05T10:30:13Z</time>
      </trkpt>
      <trkpt lat="48.05301" lon="2.95943">
        <ele>111.65026855469</ele>
        <time>2012-06-05T10:30:18Z</time>
      </trkpt>
      <trkpt lat="48.05298" lon="2.95921">
        <ele>109.72766113281</ele>
        <time>2012-06-05T10:30:29Z</time>
      </trkpt>
      <trkpt lat="48.05296" lon="2.9591">
        <ele>108.76623535156</ele>
        <time>2012-06-05T10:30:35Z</time>
      </trkpt>
      <trkpt lat="48.05292" lon="2.95879">
        <ele>107.80505371094</ele>
        <time>2012-06-05T10:30:51Z</time>
      </trkpt>
      <trkpt lat="48.05291" lon="2.95869">
        <ele>105.40173339844</ele>
        <time>2012-06-05T10:30:58Z</time>
      </trkpt>
      <trkpt lat="48.05291" lon="2.95865">
        <ele>104.4404296875</ele>
        <time>2012-06-05T10:31:00Z</time>
      </trkpt>
      <trkpt lat="48.05289" lon="2.95844">
        <ele>101.55639648438</ele>
        <time>2012-06-05T10:31:11Z</time>
      </trkpt>
      <trkpt lat="48.0529" lon="2.95835">
        <ele>99.153076171875</ele>
        <time>2012-06-05T10:31:20Z</time>
      </trkpt>
      <trkpt lat="48.05305" lon="2.95814">
        <ele>97.23046875</ele>
        <time>2012-06-05T10:31:36Z</time>
      </trkpt>
      <trkpt lat="48.05312" lon="2.95805">
        <ele>97.23046875</ele>
        <time>2012-06-05T10:31:45Z</time>
      </trkpt>
      <trkpt lat="48.05326" lon="2.95796">
        <ele>98.19189453125</ele>
        <time>2012-06-05T10:31:58Z</time>
      </trkpt>
      <trkpt lat="48.05328" lon="2.95789">
        <ele>98.19189453125</ele>
        <time>2012-06-05T10:32:02Z</time>
      </trkpt>
      <trkpt lat="48.05328" lon="2.95773">
        <ele>100.11450195312</ele>
        <time>2012-06-05T10:32:11Z</time>
      </trkpt>
      <trkpt lat="48.05322" lon="2.95751">
        <ele>102.037109375</ele>
        <time>2012-06-05T10:32:21Z</time>
      </trkpt>
      <trkpt lat="48.0532" lon="2.95742">
        <ele>102.99829101562</ele>
        <time>2012-06-05T10:32:25Z</time>
      </trkpt>
      <trkpt lat="48.05311" lon="2.95712">
        <ele>115.49560546875</ele>
        <time>2012-06-05T10:32:40Z</time>
      </trkpt>
      <trkpt lat="48.0531" lon="2.95708">
        <ele>116.9375</ele>
        <time>2012-06-05T10:32:42Z</time>
      </trkpt>
      <trkpt lat="48.05306" lon="2.95693">
        <ele>120.30212402344</ele>
        <time>2012-06-05T10:32:48Z</time>
      </trkpt>
      <trkpt lat="48.05293" lon="2.95673">
        <ele>126.55065917969</ele>
        <time>2012-06-05T10:32:59Z</time>
      </trkpt>
      <trkpt lat="48.0529" lon="2.95666">
        <ele>127.51196289062</ele>
        <time>2012-06-05T10:33:02Z</time>
      </trkpt>
      <trkpt lat="48.05284" lon="2.95654">
        <ele>128.9541015625</ele>
        <time>2012-06-05T10:33:07Z</time>
      </trkpt>
      <trkpt lat="48.05281" lon="2.95651">
        <ele>129.43469238281</ele>
        <time>2012-06-05T10:33:09Z</time>
      </trkpt>
      <trkpt lat="48.05277" lon="2.95636">
        <ele>131.837890625</ele>
        <time>2012-06-05T10:33:17Z</time>
      </trkpt>
      <trkpt lat="48.05273" lon="2.95624">
        <ele>132.31860351562</ele>
        <time>2012-06-05T10:33:23Z</time>
      </trkpt>
      <trkpt lat="48.05268" lon="2.95609">
        <ele>131.837890625</ele>
        <time>2012-06-05T10:33:32Z</time>
      </trkpt>
      <trkpt lat="48.0526" lon="2.9559">
        <ele>131.35729980469</ele>
        <time>2012-06-05T10:33:43Z</time>
      </trkpt>
      <trkpt lat="48.05249" lon="2.95567">
        <ele>128.47338867188</ele>
        <time>2012-06-05T10:33:57Z</time>
      </trkpt>
      <trkpt lat="48.05243" lon="2.95548">
        <ele>127.51196289062</ele>
        <time>2012-06-05T10:34:06Z</time>
      </trkpt>
      <trkpt lat="48.05242" lon="2.95526">
        <ele>127.51196289062</ele>
        <time>2012-06-05T10:34:16Z</time>
      </trkpt>
      <trkpt lat="48.05241" lon="2.9552">
        <ele>127.03137207031</ele>
        <time>2012-06-05T10:34:19Z</time>
      </trkpt>
      <trkpt lat="48.0524" lon="2.95496">
        <ele>125.58935546875</ele>
        <time>2012-06-05T10:34:30Z</time>
      </trkpt>
      <trkpt lat="48.05242" lon="2.95474">
        <ele>125.58935546875</ele>
        <time>2012-06-05T10:34:42Z</time>
      </trkpt>
      <trkpt lat="48.05241" lon="2.9546">
        <ele>127.99255371094</ele>
        <time>2012-06-05T10:34:57Z</time>
      </trkpt>
      <trkpt lat="48.05239" lon="2.95448">
        <ele>129.91528320312</ele>
        <time>2012-06-05T10:35:15Z</time>
      </trkpt>
      <trkpt lat="48.05239" lon="2.95445">
        <ele>129.91528320312</ele>
        <time>2012-06-05T10:35:36Z</time>
      </trkpt>
      <trkpt lat="48.05237" lon="2.95405">
        <ele>132.31860351562</ele>
        <time>2012-06-05T10:35:48Z</time>
      </trkpt>
      <trkpt lat="48.05238" lon="2.95383">
        <ele>133.76049804688</ele>
        <time>2012-06-05T10:35:58Z</time>
      </trkpt>
      <trkpt lat="48.05246" lon="2.95351">
        <ele>135.68310546875</ele>
        <time>2012-06-05T10:36:13Z</time>
      </trkpt>
      <trkpt lat="48.05253" lon="2.95316">
        <ele>136.64465332031</ele>
        <time>2012-06-05T10:36:29Z</time>
      </trkpt>
      <trkpt lat="48.0526" lon="2.9529">
        <ele>135.68310546875</ele>
        <time>2012-06-05T10:36:41Z</time>
      </trkpt>
      <trkpt lat="48.05264" lon="2.95278">
        <ele>135.20251464844</ele>
        <time>2012-06-05T10:36:49Z</time>
      </trkpt>
      <trkpt lat="48.05275" lon="2.95247">
        <ele>133.27990722656</ele>
        <time>2012-06-05T10:37:04Z</time>
      </trkpt>
      <trkpt lat="48.05281" lon="2.95223">
        <ele>132.79931640625</ele>
        <time>2012-06-05T10:37:16Z</time>
      </trkpt>
      <trkpt lat="48.05293" lon="2.95206">
        <ele>132.31860351562</ele>
        <time>2012-06-05T10:37:27Z</time>
      </trkpt>
      <trkpt lat="48.05296" lon="2.95204">
        <ele>132.31860351562</ele>
        <time>2012-06-05T10:37:30Z</time>
      </trkpt>
      <trkpt lat="48.05307" lon="2.95184">
        <ele>131.35729980469</ele>
        <time>2012-06-05T10:37:44Z</time>
      </trkpt>
      <trkpt lat="48.05308" lon="2.95171">
        <ele>130.87670898438</ele>
        <time>2012-06-05T10:37:52Z</time>
      </trkpt>
      <trkpt lat="48.05307" lon="2.95157">
        <ele>130.87670898438</ele>
        <time>2012-06-05T10:37:57Z</time>
      </trkpt>
      <trkpt lat="48.05306" lon="2.95132">
        <ele>131.35729980469</ele>
        <time>2012-06-05T10:38:09Z</time>
      </trkpt>
      <trkpt lat="48.05295" lon="2.95096">
        <ele>130.39599609375</ele>
        <time>2012-06-05T10:38:25Z</time>
      </trkpt>
      <trkpt lat="48.05304" lon="2.95066">
        <ele>128.9541015625</ele>
        <time>2012-06-05T10:38:40Z</time>
      </trkpt>
      <trkpt lat="48.05314" lon="2.95039">
        <ele>127.03137207031</ele>
        <time>2012-06-05T10:38:54Z</time>
      </trkpt>
      <trkpt lat="48.05316" lon="2.95033">
        <ele>127.03137207031</ele>
        <time>2012-06-05T10:38:57Z</time>
      </trkpt>
      <trkpt lat="48.0533" lon="2.95002">
        <ele>131.837890625</ele>
        <time>2012-06-05T10:39:11Z</time>
      </trkpt>
      <trkpt lat="48.05344" lon="2.94977">
        <ele>132.31860351562</ele>
        <time>2012-06-05T10:39:24Z</time>
      </trkpt>
      <trkpt lat="48.05355" lon="2.94957">
        <ele>128.47338867188</ele>
        <time>2012-06-05T10:39:37Z</time>
      </trkpt>
      <trkpt lat="48.05366" lon="2.94937">
        <ele>128.9541015625</ele>
        <time>2012-06-05T10:39:50Z</time>
      </trkpt>
      <trkpt lat="48.05377" lon="2.94908">
        <ele>131.35729980469</ele>
        <time>2012-06-05T10:40:04Z</time>
      </trkpt>
      <trkpt lat="48.05384" lon="2.94876">
        <ele>127.99255371094</ele>
        <time>2012-06-05T10:40:20Z</time>
      </trkpt>
      <trkpt lat="48.05388" lon="2.9485">
        <ele>128.47338867188</ele>
        <time>2012-06-05T10:40:32Z</time>
      </trkpt>
      <trkpt lat="48.05393" lon="2.94836">
        <ele>127.03137207031</ele>
        <time>2012-06-05T10:40:40Z</time>
      </trkpt>
      <trkpt lat="48.05404" lon="2.94804">
        <ele>126.06994628906</ele>
        <time>2012-06-05T10:40:56Z</time>
      </trkpt>
      <trkpt lat="48.05407" lon="2.94787">
        <ele>126.06994628906</ele>
        <time>2012-06-05T10:41:05Z</time>
      </trkpt>
      <trkpt lat="48.05402" lon="2.94771">
        <ele>127.03137207031</ele>
        <time>2012-06-05T10:41:13Z</time>
      </trkpt>
      <trkpt lat="48.05392" lon="2.94763">
        <ele>122.70544433594</ele>
        <time>2012-06-05T10:41:21Z</time>
      </trkpt>
      <trkpt lat="48.05386" lon="2.94759">
        <ele>118.37939453125</ele>
        <time>2012-06-05T10:41:27Z</time>
      </trkpt>
      <trkpt lat="48.05374" lon="2.94751">
        <ele>115.01489257812</ele>
        <time>2012-06-05T10:41:36Z</time>
      </trkpt>
      <trkpt lat="48.05361" lon="2.94738">
        <ele>112.61157226562</ele>
        <time>2012-06-05T10:41:48Z</time>
      </trkpt>
      <trkpt lat="48.05352" lon="2.94733">
        <ele>112.13098144531</ele>
        <time>2012-06-05T10:41:54Z</time>
      </trkpt>
      <trkpt lat="48.05345" lon="2.94726">
        <ele>110.68884277344</ele>
        <time>2012-06-05T10:42:08Z</time>
      </trkpt>
      <trkpt lat="48.05339" lon="2.94722">
        <ele>112.13098144531</ele>
        <time>2012-06-05T10:42:27Z</time>
      </trkpt>
      <trkpt lat="48.05331" lon="2.94717">
        <ele>112.61157226562</ele>
        <time>2012-06-05T10:42:32Z</time>
      </trkpt>
      <trkpt lat="48.05308" lon="2.94697">
        <ele>115.01489257812</ele>
        <time>2012-06-05T10:42:45Z</time>
      </trkpt>
      <trkpt lat="48.05304" lon="2.94692">
        <ele>114.5341796875</ele>
        <time>2012-06-05T10:42:49Z</time>
      </trkpt>
      <trkpt lat="48.05286" lon="2.94677">
        <ele>112.61157226562</ele>
        <time>2012-06-05T10:43:02Z</time>
      </trkpt>
      <trkpt lat="48.05282" lon="2.94664">
        <ele>112.13098144531</ele>
        <time>2012-06-05T10:43:11Z</time>
      </trkpt>
      <trkpt lat="48.0528" lon="2.94659">
        <ele>112.13098144531</ele>
        <time>2012-06-05T10:43:14Z</time>
      </trkpt>
      <trkpt lat="48.05281" lon="2.94646">
        <ele>111.65026855469</ele>
        <time>2012-06-05T10:43:20Z</time>
      </trkpt>
      <trkpt lat="48.05283" lon="2.94635">
        <ele>110.68884277344</ele>
        <time>2012-06-05T10:43:26Z</time>
      </trkpt>
      <trkpt lat="48.05288" lon="2.94612">
        <ele>108.76623535156</ele>
        <time>2012-06-05T10:43:38Z</time>
      </trkpt>
      <trkpt lat="48.05289" lon="2.94605">
        <ele>108.28564453125</ele>
        <time>2012-06-05T10:43:43Z</time>
      </trkpt>
      <trkpt lat="48.05296" lon="2.94585">
        <ele>106.84362792969</ele>
        <time>2012-06-05T10:43:55Z</time>
      </trkpt>
      <trkpt lat="48.05301" lon="2.94569">
        <ele>106.84362792969</ele>
        <time>2012-06-05T10:44:04Z</time>
      </trkpt>
      <trkpt lat="48.05305" lon="2.94551">
        <ele>107.80505371094</ele>
        <time>2012-06-05T10:44:15Z</time>
      </trkpt>
      <trkpt lat="48.05306" lon="2.94547">
        <ele>107.80505371094</ele>
        <time>2012-06-05T10:44:17Z</time>
      </trkpt>
      <trkpt lat="48.05313" lon="2.94538">
        <ele>108.28564453125</ele>
        <time>2012-06-05T10:44:24Z</time>
      </trkpt>
      <trkpt lat="48.05318" lon="2.94528">
        <ele>109.72766113281</ele>
        <time>2012-06-05T10:44:33Z</time>
      </trkpt>
      <trkpt lat="48.05325" lon="2.94517">
        <ele>111.65026855469</ele>
        <time>2012-06-05T10:44:41Z</time>
      </trkpt>
      <trkpt lat="48.05336" lon="2.94511">
        <ele>113.09228515625</ele>
        <time>2012-06-05T10:44:48Z</time>
      </trkpt>
      <trkpt lat="48.05353" lon="2.94496">
        <ele>115.01489257812</ele>
        <time>2012-06-05T10:44:59Z</time>
      </trkpt>
      <trkpt lat="48.05358" lon="2.94493">
        <ele>115.49560546875</ele>
        <time>2012-06-05T10:45:02Z</time>
      </trkpt>
      <trkpt lat="48.05369" lon="2.94476">
        <ele>117.41821289062</ele>
        <time>2012-06-05T10:45:12Z</time>
      </trkpt>
      <trkpt lat="48.05381" lon="2.94465">
        <ele>117.41821289062</ele>
        <time>2012-06-05T10:45:21Z</time>
      </trkpt>
      <trkpt lat="48.05389" lon="2.94446">
        <ele>115.49560546875</ele>
        <time>2012-06-05T10:45:31Z</time>
      </trkpt>
      <trkpt lat="48.05397" lon="2.94427">
        <ele>113.57299804688</ele>
        <time>2012-06-05T10:45:42Z</time>
      </trkpt>
      <trkpt lat="48.05404" lon="2.94405">
        <ele>111.16955566406</ele>
        <time>2012-06-05T10:45:55Z</time>
      </trkpt>
      <trkpt lat="48.05403" lon="2.944">
        <ele>110.68884277344</ele>
        <time>2012-06-05T10:45:58Z</time>
      </trkpt>
      <trkpt lat="48.05402" lon="2.94388">
        <ele>109.72766113281</ele>
        <time>2012-06-05T10:46:04Z</time>
      </trkpt>
      <trkpt lat="48.05401" lon="2.94373">
        <ele>108.28564453125</ele>
        <time>2012-06-05T10:46:11Z</time>
      </trkpt>
      <trkpt lat="48.054" lon="2.94368">
        <ele>107.80505371094</ele>
        <time>2012-06-05T10:46:14Z</time>
      </trkpt>
      <trkpt lat="48.05398" lon="2.94365">
        <ele>107.32434082031</ele>
        <time>2012-06-05T10:46:16Z</time>
      </trkpt>
      <trkpt lat="48.05391" lon="2.94339">
        <ele>107.32434082031</ele>
        <time>2012-06-05T10:46:28Z</time>
      </trkpt>
      <trkpt lat="48.05386" lon="2.94314">
        <ele>107.80505371094</ele>
        <time>2012-06-05T10:46:39Z</time>
      </trkpt>
      <trkpt lat="48.05384" lon="2.94303">
        <ele>107.32434082031</ele>
        <time>2012-06-05T10:46:44Z</time>
      </trkpt>
      <trkpt lat="48.05382" lon="2.94295">
        <ele>106.84362792969</ele>
        <time>2012-06-05T10:46:48Z</time>
      </trkpt>
      <trkpt lat="48.05381" lon="2.9429">
        <ele>106.84362792969</ele>
        <time>2012-06-05T10:46:50Z</time>
      </trkpt>
      <trkpt lat="48.05377" lon="2.94262">
        <ele>105.88244628906</ele>
        <time>2012-06-05T10:47:04Z</time>
      </trkpt>
      <trkpt lat="48.05376" lon="2.94254">
        <ele>105.40173339844</ele>
        <time>2012-06-05T10:47:07Z</time>
      </trkpt>
      <trkpt lat="48.05374" lon="2.94242">
        <ele>104.92102050781</ele>
        <time>2012-06-05T10:47:12Z</time>
      </trkpt>
      <trkpt lat="48.05375" lon="2.94222">
        <ele>103.47900390625</ele>
        <time>2012-06-05T10:47:23Z</time>
      </trkpt>
      <trkpt lat="48.05373" lon="2.94213">
        <ele>102.99829101562</ele>
        <time>2012-06-05T10:47:27Z</time>
      </trkpt>
      <trkpt lat="48.05374" lon="2.94189">
        <ele>102.99829101562</ele>
        <time>2012-06-05T10:47:38Z</time>
      </trkpt>
      <trkpt lat="48.0538" lon="2.94173">
        <ele>102.99829101562</ele>
        <time>2012-06-05T10:47:46Z</time>
      </trkpt>
      <trkpt lat="48.0539" lon="2.9415">
        <ele>104.92102050781</ele>
        <time>2012-06-05T10:47:58Z</time>
      </trkpt>
      <trkpt lat="48.05401" lon="2.9413">
        <ele>105.88244628906</ele>
        <time>2012-06-05T10:48:10Z</time>
      </trkpt>
      <trkpt lat="48.05401" lon="2.94123">
        <ele>106.84362792969</ele>
        <time>2012-06-05T10:48:14Z</time>
      </trkpt>
      <trkpt lat="48.05404" lon="2.94093">
        <ele>107.80505371094</ele>
        <time>2012-06-05T10:48:28Z</time>
      </trkpt>
      <trkpt lat="48.05404" lon="2.94088">
        <ele>107.80505371094</ele>
        <time>2012-06-05T10:48:30Z</time>
      </trkpt>
      <trkpt lat="48.05399" lon="2.94055">
        <ele>109.24694824219</ele>
        <time>2012-06-05T10:48:45Z</time>
      </trkpt>
      <trkpt lat="48.05397" lon="2.94032">
        <ele>109.72766113281</ele>
        <time>2012-06-05T10:48:55Z</time>
      </trkpt>
      <trkpt lat="48.0539" lon="2.94005">
        <ele>113.09228515625</ele>
        <time>2012-06-05T10:49:08Z</time>
      </trkpt>
      <trkpt lat="48.0539" lon="2.94003">
        <ele>113.57299804688</ele>
        <time>2012-06-05T10:49:09Z</time>
      </trkpt>
      <trkpt lat="48.05385" lon="2.9398">
        <ele>115.01489257812</ele>
        <time>2012-06-05T10:49:20Z</time>
      </trkpt>
      <trkpt lat="48.05382" lon="2.93969">
        <ele>114.5341796875</ele>
        <time>2012-06-05T10:49:26Z</time>
      </trkpt>
      <trkpt lat="48.05381" lon="2.93959">
        <ele>114.5341796875</ele>
        <time>2012-06-05T10:49:30Z</time>
      </trkpt>
      <trkpt lat="48.05379" lon="2.93929">
        <ele>115.97619628906</ele>
        <time>2012-06-05T10:49:44Z</time>
      </trkpt>
      <trkpt lat="48.0538" lon="2.93925">
        <ele>115.97619628906</ele>
        <time>2012-06-05T10:49:47Z</time>
      </trkpt>
      <trkpt lat="48.05379" lon="2.93921">
        <ele>116.45678710938</ele>
        <time>2012-06-05T10:49:49Z</time>
      </trkpt>
      <trkpt lat="48.05379" lon="2.93907">
        <ele>115.97619628906</ele>
        <time>2012-06-05T10:49:55Z</time>
      </trkpt>
      <trkpt lat="48.05382" lon="2.93883">
        <ele>115.49560546875</ele>
        <time>2012-06-05T10:50:07Z</time>
      </trkpt>
      <trkpt lat="48.05383" lon="2.93863">
        <ele>114.05358886719</ele>
        <time>2012-06-05T10:50:17Z</time>
      </trkpt>
      <trkpt lat="48.05387" lon="2.93836">
        <ele>112.13098144531</ele>
        <time>2012-06-05T10:50:29Z</time>
      </trkpt>
      <trkpt lat="48.05392" lon="2.938">
        <ele>110.20825195312</ele>
        <time>2012-06-05T10:50:45Z</time>
      </trkpt>
      <trkpt lat="48.05393" lon="2.93789">
        <ele>109.72766113281</ele>
        <time>2012-06-05T10:50:49Z</time>
      </trkpt>
      <trkpt lat="48.05395" lon="2.9377">
        <ele>108.28564453125</ele>
        <time>2012-06-05T10:50:59Z</time>
      </trkpt>
      <trkpt lat="48.05395" lon="2.93761">
        <ele>107.32434082031</ele>
        <time>2012-06-05T10:51:10Z</time>
      </trkpt>
      <trkpt lat="48.05399" lon="2.93742">
        <ele>106.36303710938</ele>
        <time>2012-06-05T10:51:19Z</time>
      </trkpt>
      <trkpt lat="48.05403" lon="2.93724">
        <ele>105.40173339844</ele>
        <time>2012-06-05T10:51:27Z</time>
      </trkpt>
      <trkpt lat="48.05405" lon="2.93708">
        <ele>104.4404296875</ele>
        <time>2012-06-05T10:51:34Z</time>
      </trkpt>
      <trkpt lat="48.05409" lon="2.93676">
        <ele>102.99829101562</ele>
        <time>2012-06-05T10:51:49Z</time>
      </trkpt>
      <trkpt lat="48.05411" lon="2.93668">
        <ele>103.47900390625</ele>
        <time>2012-06-05T10:51:53Z</time>
      </trkpt>
      <trkpt lat="48.05407" lon="2.93659">
        <ele>104.4404296875</ele>
        <time>2012-06-05T10:51:58Z</time>
      </trkpt>
      <trkpt lat="48.05404" lon="2.93656">
        <ele>104.92102050781</ele>
        <time>2012-06-05T10:52:01Z</time>
      </trkpt>
      <trkpt lat="48.05383" lon="2.93655">
        <ele>107.80505371094</ele>
        <time>2012-06-05T10:52:15Z</time>
      </trkpt>
      <trkpt lat="48.0536" lon="2.93655">
        <ele>105.40173339844</ele>
        <time>2012-06-05T10:52:30Z</time>
      </trkpt>
      <trkpt lat="48.05341" lon="2.93653">
        <ele>102.51770019531</ele>
        <time>2012-06-05T10:52:45Z</time>
      </trkpt>
      <trkpt lat="48.05319" lon="2.93656">
        <ele>105.88244628906</ele>
        <time>2012-06-05T10:53:00Z</time>
      </trkpt>
      <trkpt lat="48.053" lon="2.93659">
        <ele>108.28564453125</ele>
        <time>2012-06-05T10:53:12Z</time>
      </trkpt>
      <trkpt lat="48.05286" lon="2.93656">
        <ele>108.76623535156</ele>
        <time>2012-06-05T10:53:22Z</time>
      </trkpt>
      <trkpt lat="48.05272" lon="2.93656">
        <ele>108.76623535156</ele>
        <time>2012-06-05T10:53:32Z</time>
      </trkpt>
      <trkpt lat="48.05254" lon="2.9366">
        <ele>107.80505371094</ele>
        <time>2012-06-05T10:53:45Z</time>
      </trkpt>
      <trkpt lat="48.05247" lon="2.93661">
        <ele>107.80505371094</ele>
        <time>2012-06-05T10:53:50Z</time>
      </trkpt>
      <trkpt lat="48.05233" lon="2.93659">
        <ele>108.76623535156</ele>
        <time>2012-06-05T10:54:00Z</time>
      </trkpt>
      <trkpt lat="48.05226" lon="2.9366">
        <ele>108.76623535156</ele>
        <time>2012-06-05T10:54:05Z</time>
      </trkpt>
      <trkpt lat="48.0521" lon="2.93662">
        <ele>110.68884277344</ele>
        <time>2012-06-05T10:54:16Z</time>
      </trkpt>
      <trkpt lat="48.05208" lon="2.93659">
        <ele>110.68884277344</ele>
        <time>2012-06-05T10:54:18Z</time>
      </trkpt>
      <trkpt lat="48.05195" lon="2.93651">
        <ele>110.20825195312</ele>
        <time>2012-06-05T10:54:28Z</time>
      </trkpt>
      <trkpt lat="48.05184" lon="2.93644">
        <ele>109.72766113281</ele>
        <time>2012-06-05T10:54:37Z</time>
      </trkpt>
      <trkpt lat="48.05181" lon="2.93643">
        <ele>109.72766113281</ele>
        <time>2012-06-05T10:54:39Z</time>
      </trkpt>
      <trkpt lat="48.05174" lon="2.93639">
        <ele>110.68884277344</ele>
        <time>2012-06-05T10:54:44Z</time>
      </trkpt>
      <trkpt lat="48.05165" lon="2.93629">
        <ele>111.16955566406</ele>
        <time>2012-06-05T10:54:52Z</time>
      </trkpt>
      <trkpt lat="48.05159" lon="2.93624">
        <ele>112.13098144531</ele>
        <time>2012-06-05T10:54:57Z</time>
      </trkpt>
      <trkpt lat="48.05149" lon="2.93618">
        <ele>115.49560546875</ele>
        <time>2012-06-05T10:55:06Z</time>
      </trkpt>
      <trkpt lat="48.05138" lon="2.9361">
        <ele>115.97619628906</ele>
        <time>2012-06-05T10:55:14Z</time>
      </trkpt>
      <trkpt lat="48.05132" lon="2.93602">
        <ele>115.49560546875</ele>
        <time>2012-06-05T10:55:20Z</time>
      </trkpt>
      <trkpt lat="48.05124" lon="2.93598">
        <ele>115.01489257812</ele>
        <time>2012-06-05T10:55:25Z</time>
      </trkpt>
      <trkpt lat="48.05121" lon="2.93598">
        <ele>114.5341796875</ele>
        <time>2012-06-05T10:55:27Z</time>
      </trkpt>
      <trkpt lat="48.05113" lon="2.93601">
        <ele>113.09228515625</ele>
        <time>2012-06-05T10:55:33Z</time>
      </trkpt>
      <trkpt lat="48.05098" lon="2.93601">
        <ele>110.68884277344</ele>
        <time>2012-06-05T10:55:44Z</time>
      </trkpt>
      <trkpt lat="48.05092" lon="2.93598">
        <ele>110.20825195312</ele>
        <time>2012-06-05T10:55:47Z</time>
      </trkpt>
      <trkpt lat="48.05087" lon="2.93605">
        <ele>111.65026855469</ele>
        <time>2012-06-05T10:55:52Z</time>
      </trkpt>
      <trkpt lat="48.05087" lon="2.93611">
        <ele>112.61157226562</ele>
        <time>2012-06-05T10:55:57Z</time>
      </trkpt>
      <trkpt lat="48.05085" lon="2.93614">
        <ele>113.09228515625</ele>
        <time>2012-06-05T10:56:07Z</time>
      </trkpt>
      <trkpt lat="48.05084" lon="2.93612">
        <ele>113.57299804688</ele>
        <time>2012-06-05T10:56:09Z</time>
      </trkpt>
      <trkpt lat="48.05076" lon="2.93604">
        <ele>115.49560546875</ele>
        <time>2012-06-05T10:56:23Z</time>
      </trkpt>
      <trkpt lat="48.05076" lon="2.93604">
        <ele>115.49560546875</ele>
        <time>2012-06-05T10:56:42Z</time>
      </trkpt>
    </trkseg>
  </trk>
</gpx>